OCN132W EDDF-FYWH
Flight info
| Callsign | OCN132W |
|---|---|
| Flight time | N/A |
| Altitude | 37000 |
| Route | ANEKI2L/18 ANEKI Y163 NATOR DCT TRA DCT RIPUS DCT GERSA DCT SOSON DCT ODINA DCT PIDAD DCT TALEP DCT VAREK DCT ERPIN DCT ETOIL DCT CIRTA UA605 CSO UM2 DJA UB730 DIR UA607 FL UA403 BZ DCT KSA UT943 VEDRY |
| Aircraft | A333/H-SDE2E3FGHIJ3J4J5LM1OP2RWXYZ/LB2D1 |
Departure
| Time | N/A |
|---|---|
| Airport | Frankfurt Main Airport (EDDF) |
Arrival
| Time | 2026-04-23 05:13 |
|---|---|
| Airport | Hosea Kutako International Airport (FYWH) |
| Time | Latitude | Longitude | Altitude | Speed | Heading |
|---|---|---|---|---|---|
| 2026-04-22 20:13 | 49.67367 | 8.51053 | 10934 ft | 337 kts | 179° |
| 2026-04-22 20:13 | 49.64965 | 8.50971 | 11336 ft | 345 kts | 179° |
| 2026-04-22 20:14 | 49.62548 | 8.50878 | 11880 ft | 349 kts | 179° |
| 2026-04-22 20:14 | 49.60146 | 8.50783 | 12423 ft | 352 kts | 179° |
| 2026-04-22 20:14 | 49.57687 | 8.50686 | 12975 ft | 355 kts | 179° |
| 2026-04-22 20:14 | 49.55205 | 8.50589 | 13538 ft | 358 kts | 179° |
| 2026-04-22 20:15 | 49.52702 | 8.50493 | 14085 ft | 362 kts | 179° |
| 2026-04-22 20:15 | 49.50177 | 8.50396 | 14592 ft | 364 kts | 179° |
| 2026-04-22 20:15 | 49.47636 | 8.50299 | 15096 ft | 367 kts | 179° |
| 2026-04-22 20:15 | 49.46769 | 8.50266 | 15265 ft | 368 kts | 179° |
| 2026-04-22 20:16 | 49.46178 | 8.50244 | 15381 ft | 368 kts | 179° |
| 2026-04-22 20:16 | 49.43605 | 8.50146 | 15881 ft | 371 kts | 179° |
| 2026-04-22 20:16 | 49.41015 | 8.50047 | 16372 ft | 374 kts | 179° |
| 2026-04-22 20:16 | 49.38404 | 8.49948 | 16867 ft | 377 kts | 179° |
| 2026-04-22 20:17 | 49.35773 | 8.49848 | 17352 ft | 380 kts | 179° |
| 2026-04-22 20:17 | 49.33117 | 8.49747 | 17842 ft | 383 kts | 179° |
| 2026-04-22 20:17 | 49.30445 | 8.49646 | 18323 ft | 386 kts | 179° |
| 2026-04-22 20:17 | 49.27752 | 8.49544 | 18785 ft | 388 kts | 179° |
| 2026-04-22 20:18 | 49.25041 | 8.49441 | 19218 ft | 391 kts | 179° |
| 2026-04-22 20:18 | 49.22314 | 8.49338 | 19674 ft | 393 kts | 179° |
| 2026-04-22 20:18 | 49.19571 | 8.49234 | 20109 ft | 396 kts | 179° |
| 2026-04-22 20:18 | 49.16804 | 8.49130 | 20548 ft | 399 kts | 179° |
| 2026-04-22 20:19 | 49.14025 | 8.49025 | 21000 ft | 401 kts | 179° |
| 2026-04-22 20:19 | 49.11221 | 8.48920 | 21427 ft | 404 kts | 179° |
| 2026-04-22 20:19 | 49.08401 | 8.48814 | 21858 ft | 407 kts | 179° |
| 2026-04-22 20:19 | 49.05559 | 8.48708 | 22301 ft | 410 kts | 179° |
| 2026-04-22 20:20 | 49.02698 | 8.48600 | 22720 ft | 413 kts | 179° |
| 2026-04-22 20:20 | 48.99816 | 8.48492 | 23163 ft | 416 kts | 179° |
| 2026-04-22 20:20 | 48.96908 | 8.48384 | 23602 ft | 419 kts | 179° |
| 2026-04-22 20:20 | 48.93981 | 8.48274 | 24006 ft | 423 kts | 179° |
| 2026-04-22 20:21 | 48.91033 | 8.48164 | 24369 ft | 425 kts | 179° |
| 2026-04-22 20:21 | 48.88060 | 8.48054 | 24738 ft | 428 kts | 179° |
| 2026-04-22 20:21 | 48.85070 | 8.47943 | 25093 ft | 432 kts | 180° |
| 2026-04-22 20:21 | 48.82060 | 8.47831 | 25451 ft | 434 kts | 180° |
| 2026-04-22 20:22 | 48.79026 | 8.47718 | 25796 ft | 438 kts | 180° |
| 2026-04-22 20:22 | 48.75973 | 8.47605 | 26136 ft | 441 kts | 180° |
| 2026-04-22 20:22 | 48.72896 | 8.47491 | 26491 ft | 444 kts | 180° |
| 2026-04-22 20:22 | 48.69801 | 8.47377 | 26833 ft | 446 kts | 180° |
| 2026-04-22 20:23 | 48.66686 | 8.47262 | 27158 ft | 449 kts | 180° |
| 2026-04-22 20:23 | 48.63553 | 8.47147 | 27493 ft | 452 kts | 180° |
| 2026-04-22 20:23 | 48.60394 | 8.47030 | 27813 ft | 455 kts | 181° |
| 2026-04-22 20:23 | 48.57223 | 8.46913 | 28130 ft | 458 kts | 181° |
| 2026-04-22 20:24 | 48.54024 | 8.46795 | 28444 ft | 461 kts | 181° |
| 2026-04-22 20:24 | 48.50809 | 8.46676 | 28753 ft | 464 kts | 181° |
| 2026-04-22 20:24 | 48.47574 | 8.46558 | 29057 ft | 466 kts | 181° |
| 2026-04-22 20:24 | 48.44326 | 8.46438 | 29367 ft | 469 kts | 181° |
| 2026-04-22 20:25 | 48.41054 | 8.46319 | 29663 ft | 471 kts | 181° |
| 2026-04-22 20:25 | 48.37808 | 8.46199 | 29951 ft | 474 kts | 181° |
| 2026-04-22 20:25 | 48.34501 | 8.46078 | 30256 ft | 477 kts | 181° |
| 2026-04-22 20:25 | 48.31179 | 8.45956 | 30521 ft | 479 kts | 181° |
| 2026-04-22 20:26 | 48.27843 | 8.45834 | 30812 ft | 481 kts | 181° |
| 2026-04-22 20:26 | 48.24491 | 8.45712 | 31098 ft | 483 kts | 182° |
| 2026-04-22 20:26 | 48.21128 | 8.45589 | 31378 ft | 485 kts | 182° |
| 2026-04-22 20:26 | 48.17747 | 8.45466 | 31660 ft | 487 kts | 182° |
| 2026-04-22 20:27 | 48.14354 | 8.45343 | 31932 ft | 489 kts | 182° |
| 2026-04-22 20:27 | 48.10949 | 8.45218 | 32195 ft | 491 kts | 182° |
| 2026-04-22 20:27 | 48.07533 | 8.45095 | 32468 ft | 493 kts | 182° |
| 2026-04-22 20:27 | 48.04099 | 8.44970 | 32707 ft | 495 kts | 182° |
| 2026-04-22 20:28 | 48.00653 | 8.44846 | 32932 ft | 496 kts | 182° |
| 2026-04-22 20:28 | 47.97194 | 8.44720 | 33140 ft | 498 kts | 182° |
| 2026-04-22 20:28 | 47.93723 | 8.44595 | 33298 ft | 500 kts | 182° |
| 2026-04-22 20:29 | 47.87715 | 8.44380 | 33494 ft | 503 kts | 182° |
| 2026-04-22 20:29 | 47.84213 | 8.44254 | 33663 ft | 504 kts | 182° |
| 2026-04-22 20:29 | 47.80708 | 8.44128 | 33850 ft | 504 kts | 182° |
| 2026-04-22 20:29 | 47.77212 | 8.44003 | 34042 ft | 503 kts | 182° |
| 2026-04-22 20:30 | 47.73709 | 8.43877 | 34220 ft | 503 kts | 182° |
| 2026-04-22 20:30 | 47.70213 | 8.43758 | 34380 ft | 503 kts | 181° |
| 2026-04-22 20:30 | 47.67556 | 8.43868 | 34474 ft | 504 kts | 176° |
| 2026-04-22 20:30 | 47.64070 | 8.44381 | 34603 ft | 504 kts | 174° |
| 2026-04-22 20:31 | 47.60580 | 8.44922 | 34729 ft | 504 kts | 175° |
| 2026-04-22 20:31 | 47.57086 | 8.45452 | 34876 ft | 505 kts | 175° |
| 2026-04-22 20:31 | 47.53595 | 8.45972 | 35017 ft | 505 kts | 175° |
| 2026-04-22 20:31 | 47.50093 | 8.46489 | 35145 ft | 505 kts | 175° |
| 2026-04-22 20:32 | 47.46594 | 8.47003 | 35276 ft | 506 kts | 175° |
| 2026-04-22 20:32 | 47.43092 | 8.47517 | 35409 ft | 506 kts | 175° |
| 2026-04-22 20:32 | 47.39585 | 8.48030 | 35541 ft | 506 kts | 175° |
| 2026-04-22 20:32 | 47.36083 | 8.48542 | 35674 ft | 507 kts | 175° |
| 2026-04-22 20:33 | 47.32572 | 8.49055 | 35801 ft | 507 kts | 175° |
| 2026-04-22 20:33 | 47.29063 | 8.49566 | 35943 ft | 507 kts | 175° |
| 2026-04-22 20:33 | 47.25550 | 8.50077 | 36070 ft | 507 kts | 175° |
| 2026-04-22 20:33 | 47.22037 | 8.50590 | 36187 ft | 507 kts | 175° |
| 2026-04-22 20:34 | 47.18527 | 8.51102 | 36302 ft | 507 kts | 175° |
| 2026-04-22 20:34 | 47.15008 | 8.51614 | 36438 ft | 508 kts | 175° |
| 2026-04-22 20:34 | 47.11495 | 8.52124 | 36576 ft | 508 kts | 175° |
| 2026-04-22 20:34 | 47.07976 | 8.52635 | 36704 ft | 508 kts | 175° |
| 2026-04-22 20:35 | 47.04458 | 8.53145 | 36837 ft | 508 kts | 176° |
| 2026-04-22 20:35 | 47.00942 | 8.53654 | 36982 ft | 508 kts | 176° |
| 2026-04-22 20:35 | 46.97420 | 8.54161 | 37131 ft | 508 kts | 176° |
| 2026-04-22 20:35 | 46.93902 | 8.54668 | 37232 ft | 509 kts | 176° |
| 2026-04-22 20:36 | 46.90368 | 8.55178 | 37239 ft | 511 kts | 176° |
| 2026-04-22 20:36 | 46.83250 | 8.56203 | 37219 ft | 517 kts | 176° |
| 2026-04-22 20:37 | 46.76127 | 8.57220 | 37220 ft | 518 kts | 176° |
| 2026-04-22 20:37 | 46.68951 | 8.58245 | 37212 ft | 519 kts | 176° |
| 2026-04-22 20:38 | 46.61757 | 8.59266 | 37206 ft | 520 kts | 176° |
| 2026-04-22 20:38 | 46.54549 | 8.60294 | 37206 ft | 521 kts | 176° |
| 2026-04-22 20:39 | 46.47328 | 8.61317 | 37196 ft | 521 kts | 176° |
| 2026-04-22 20:39 | 46.40110 | 8.62340 | 37201 ft | 520 kts | 176° |
| 2026-04-22 20:40 | 46.32905 | 8.63353 | 37207 ft | 521 kts | 176° |
| 2026-04-22 20:40 | 46.25692 | 8.64367 | 37206 ft | 521 kts | 176° |
| 2026-04-22 20:41 | 46.18496 | 8.65375 | 37220 ft | 518 kts | 176° |
| 2026-04-22 20:41 | 46.11310 | 8.66380 | 37203 ft | 520 kts | 177° |
| 2026-04-22 20:42 | 46.04099 | 8.66643 | 37207 ft | 519 kts | 182° |
| 2026-04-22 20:42 | 45.96866 | 8.66769 | 37202 ft | 521 kts | 182° |
| 2026-04-22 20:43 | 45.89617 | 8.66912 | 37203 ft | 521 kts | 182° |
| 2026-04-22 20:43 | 45.82353 | 8.67056 | 37206 ft | 522 kts | 182° |
| 2026-04-22 20:44 | 45.75081 | 8.67199 | 37206 ft | 523 kts | 182° |
| 2026-04-22 20:44 | 45.67797 | 8.67343 | 37211 ft | 523 kts | 182° |
| 2026-04-22 20:45 | 45.60508 | 8.67486 | 37210 ft | 524 kts | 182° |
| 2026-04-22 20:45 | 45.53218 | 8.67629 | 37208 ft | 524 kts | 182° |
| 2026-04-22 20:46 | 45.42322 | 8.67841 | 37206 ft | 524 kts | 183° |
| 2026-04-22 20:46 | 45.34977 | 8.67984 | 37207 ft | 524 kts | 183° |
| 2026-04-22 20:47 | 45.27679 | 8.68126 | 37187 ft | 525 kts | 183° |
| 2026-04-22 20:47 | 45.20425 | 8.68266 | 37187 ft | 525 kts | 183° |
| 2026-04-22 20:48 | 45.13126 | 8.68406 | 37177 ft | 525 kts | 183° |
| 2026-04-22 20:48 | 45.05823 | 8.68547 | 37184 ft | 525 kts | 183° |
| 2026-04-22 20:49 | 44.98518 | 8.68687 | 37191 ft | 525 kts | 183° |
| 2026-04-22 20:49 | 44.91211 | 8.68826 | 37192 ft | 525 kts | 183° |
| 2026-04-22 20:50 | 44.83903 | 8.68966 | 37190 ft | 525 kts | 183° |
| 2026-04-22 20:50 | 44.76595 | 8.69105 | 37202 ft | 525 kts | 184° |
| 2026-04-22 20:51 | 44.69287 | 8.69244 | 37204 ft | 525 kts | 184° |
| 2026-04-22 20:51 | 44.61978 | 8.69383 | 37193 ft | 525 kts | 184° |
| 2026-04-22 20:52 | 44.55908 | 8.69498 | 37191 ft | 525 kts | 184° |
| 2026-04-22 20:52 | 44.48602 | 8.69636 | 37189 ft | 525 kts | 184° |
| 2026-04-22 20:53 | 44.41307 | 8.69775 | 37183 ft | 524 kts | 184° |
| 2026-04-22 20:53 | 44.34017 | 8.69911 | 37183 ft | 524 kts | 184° |
| 2026-04-22 20:54 | 44.26729 | 8.70044 | 37185 ft | 524 kts | 184° |
| 2026-04-22 20:54 | 44.19443 | 8.70179 | 37189 ft | 524 kts | 184° |
| 2026-04-22 20:55 | 44.12155 | 8.70315 | 37189 ft | 524 kts | 184° |
| 2026-04-22 20:55 | 44.04871 | 8.70450 | 37186 ft | 524 kts | 184° |
| 2026-04-22 20:56 | 43.97582 | 8.70585 | 37186 ft | 524 kts | 184° |
| 2026-04-22 20:56 | 43.90294 | 8.70720 | 37183 ft | 524 kts | 184° |
| 2026-04-22 20:57 | 43.83004 | 8.70854 | 37184 ft | 524 kts | 184° |
| 2026-04-22 20:57 | 43.75759 | 8.70987 | 37181 ft | 524 kts | 184° |
| 2026-04-22 20:58 | 43.68462 | 8.71121 | 37180 ft | 524 kts | 184° |
| 2026-04-22 20:58 | 43.61171 | 8.71251 | 37179 ft | 524 kts | 184° |
| 2026-04-22 20:59 | 43.53888 | 8.71253 | 37180 ft | 523 kts | 185° |
| 2026-04-22 20:59 | 43.46695 | 8.70549 | 37184 ft | 512 kts | 198° |
| 2026-04-22 21:00 | 43.40105 | 8.67339 | 37178 ft | 497 kts | 213° |
| 2026-04-22 21:00 | 43.33869 | 8.63215 | 37177 ft | 497 kts | 212° |
| 2026-04-22 21:01 | 43.27613 | 8.59158 | 37185 ft | 497 kts | 212° |
| 2026-04-22 21:01 | 43.21355 | 8.55123 | 37184 ft | 497 kts | 212° |
| 2026-04-22 21:02 | 43.15099 | 8.51100 | 37177 ft | 496 kts | 212° |
| 2026-04-22 21:02 | 43.08854 | 8.47091 | 37160 ft | 496 kts | 212° |
| 2026-04-22 21:03 | 43.02610 | 8.43092 | 37154 ft | 495 kts | 212° |
| 2026-04-22 21:03 | 42.96367 | 8.39102 | 37151 ft | 495 kts | 212° |
| 2026-04-22 21:04 | 42.90129 | 8.35124 | 37148 ft | 495 kts | 212° |
| 2026-04-22 21:04 | 42.83893 | 8.31157 | 37142 ft | 495 kts | 212° |
| 2026-04-22 21:05 | 42.77659 | 8.27199 | 37134 ft | 494 kts | 212° |
| 2026-04-22 21:05 | 42.71423 | 8.23250 | 37124 ft | 494 kts | 212° |
| 2026-04-22 21:06 | 42.65192 | 8.19313 | 37125 ft | 494 kts | 211° |
| 2026-04-22 21:06 | 42.58958 | 8.15383 | 37122 ft | 494 kts | 211° |
| 2026-04-22 21:07 | 42.52729 | 8.11464 | 37122 ft | 493 kts | 211° |
| 2026-04-22 21:07 | 42.46507 | 8.07558 | 37120 ft | 493 kts | 211° |
| 2026-04-22 21:08 | 42.40284 | 8.03660 | 37117 ft | 493 kts | 211° |
| 2026-04-22 21:08 | 42.34061 | 7.99771 | 37116 ft | 492 kts | 211° |
| 2026-04-22 21:09 | 42.27762 | 7.96095 | 37101 ft | 494 kts | 208° |
| 2026-04-22 21:09 | 42.21397 | 7.92597 | 37112 ft | 494 kts | 208° |
| 2026-04-22 21:10 | 42.15032 | 7.89094 | 37112 ft | 494 kts | 208° |
| 2026-04-22 21:10 | 42.08672 | 7.85604 | 37118 ft | 494 kts | 208° |
| 2026-04-22 21:11 | 42.02354 | 7.82145 | 37114 ft | 493 kts | 207° |
| 2026-04-22 21:11 | 41.95994 | 7.78671 | 37112 ft | 493 kts | 207° |
| 2026-04-22 21:12 | 41.89635 | 7.75205 | 37115 ft | 493 kts | 207° |
| 2026-04-22 21:12 | 41.83276 | 7.71746 | 37115 ft | 493 kts | 207° |
| 2026-04-22 21:13 | 41.76916 | 7.68295 | 37115 ft | 493 kts | 207° |
| 2026-04-22 21:13 | 41.70551 | 7.64847 | 37115 ft | 493 kts | 207° |
| 2026-04-22 21:14 | 41.64185 | 7.61407 | 37120 ft | 494 kts | 207° |
| 2026-04-22 21:14 | 41.57770 | 7.58089 | 37118 ft | 497 kts | 202° |
| 2026-04-22 21:15 | 41.50959 | 7.56170 | 37110 ft | 503 kts | 194° |
| 2026-04-22 21:15 | 41.44056 | 7.54624 | 37111 ft | 503 kts | 194° |
| 2026-04-22 21:16 | 41.37160 | 7.53045 | 37109 ft | 503 kts | 194° |
| 2026-04-22 21:16 | 41.30260 | 7.51462 | 37108 ft | 503 kts | 194° |
| 2026-04-22 21:17 | 41.23357 | 7.49882 | 37103 ft | 503 kts | 194° |
| 2026-04-22 21:17 | 41.16450 | 7.48306 | 37102 ft | 503 kts | 194° |
| 2026-04-22 21:18 | 41.09549 | 7.46734 | 37098 ft | 503 kts | 194° |
| 2026-04-22 21:18 | 41.02645 | 7.45164 | 37094 ft | 504 kts | 194° |
| 2026-04-22 21:19 | 40.95737 | 7.43598 | 37095 ft | 504 kts | 194° |
| 2026-04-22 21:19 | 40.88829 | 7.42034 | 37088 ft | 504 kts | 194° |
| 2026-04-22 21:20 | 40.81924 | 7.40475 | 37083 ft | 503 kts | 194° |
| 2026-04-22 21:20 | 40.75018 | 7.38918 | 37079 ft | 503 kts | 194° |
| 2026-04-22 21:21 | 40.68162 | 7.37376 | 37076 ft | 503 kts | 194° |
| 2026-04-22 21:21 | 40.61260 | 7.35827 | 37075 ft | 503 kts | 194° |
| 2026-04-22 21:22 | 40.54361 | 7.34282 | 37074 ft | 503 kts | 194° |
| 2026-04-22 21:22 | 40.47464 | 7.32741 | 37075 ft | 503 kts | 194° |
| 2026-04-22 21:23 | 40.40571 | 7.31203 | 37069 ft | 502 kts | 194° |
| 2026-04-22 21:23 | 40.33680 | 7.29669 | 37070 ft | 502 kts | 194° |
| 2026-04-22 21:24 | 40.26794 | 7.28140 | 37072 ft | 502 kts | 194° |
| 2026-04-22 21:24 | 40.19910 | 7.26614 | 37077 ft | 502 kts | 194° |
| 2026-04-22 21:25 | 40.13023 | 7.25091 | 37071 ft | 502 kts | 193° |
| 2026-04-22 21:25 | 40.06143 | 7.23572 | 37070 ft | 501 kts | 193° |
| 2026-04-22 21:26 | 39.99263 | 7.22056 | 37075 ft | 501 kts | 193° |
| 2026-04-22 21:26 | 39.92385 | 7.20544 | 37067 ft | 501 kts | 193° |
| 2026-04-22 21:27 | 39.85505 | 7.19034 | 37071 ft | 501 kts | 193° |
| 2026-04-22 21:27 | 39.78631 | 7.17529 | 37073 ft | 501 kts | 193° |
| 2026-04-22 21:28 | 39.71752 | 7.16030 | 37070 ft | 501 kts | 193° |
| 2026-04-22 21:28 | 39.64831 | 7.14779 | 37072 ft | 502 kts | 191° |
| 2026-04-22 21:29 | 39.57903 | 7.13588 | 37072 ft | 502 kts | 191° |
| 2026-04-22 21:29 | 39.50981 | 7.12365 | 37074 ft | 502 kts | 192° |
| 2026-04-22 21:30 | 39.44074 | 7.11135 | 37071 ft | 497 kts | 191° |
| 2026-04-22 21:30 | 39.37211 | 7.09913 | 37074 ft | 499 kts | 191° |
| 2026-04-22 21:31 | 39.30329 | 7.08689 | 37074 ft | 500 kts | 191° |
| 2026-04-22 21:31 | 39.23503 | 7.07482 | 37071 ft | 492 kts | 191° |
| 2026-04-22 21:32 | 39.16785 | 7.06296 | 37073 ft | 488 kts | 191° |
| 2026-04-22 21:32 | 39.10040 | 7.05102 | 37073 ft | 489 kts | 191° |
| 2026-04-22 21:33 | 39.03298 | 7.03914 | 37071 ft | 489 kts | 191° |
| 2026-04-22 21:33 | 38.96551 | 7.02746 | 37067 ft | 489 kts | 191° |
| 2026-04-22 21:34 | 38.89790 | 7.01660 | 37078 ft | 490 kts | 191° |
| 2026-04-22 21:34 | 38.83028 | 7.00574 | 37065 ft | 490 kts | 191° |
| 2026-04-22 21:35 | 38.76267 | 6.99480 | 37074 ft | 490 kts | 191° |
| 2026-04-22 21:35 | 38.69507 | 6.98387 | 37071 ft | 490 kts | 191° |
| 2026-04-22 21:36 | 38.62745 | 6.97295 | 37079 ft | 490 kts | 191° |
| 2026-04-22 21:36 | 38.55981 | 6.96206 | 37078 ft | 490 kts | 190° |
| 2026-04-22 21:37 | 38.49219 | 6.95118 | 37080 ft | 490 kts | 190° |
| 2026-04-22 21:37 | 38.42453 | 6.94033 | 37077 ft | 490 kts | 190° |
| 2026-04-22 21:38 | 38.35690 | 6.92949 | 37070 ft | 491 kts | 190° |
| 2026-04-22 21:38 | 38.30030 | 6.92043 | 37073 ft | 495 kts | 190° |
| 2026-04-22 21:39 | 38.23169 | 6.90947 | 37076 ft | 498 kts | 190° |
| 2026-04-22 21:39 | 38.16274 | 6.89849 | 37069 ft | 500 kts | 190° |
| 2026-04-22 21:40 | 38.09366 | 6.88752 | 37069 ft | 501 kts | 190° |
| 2026-04-22 21:40 | 38.02444 | 6.87653 | 37070 ft | 502 kts | 190° |
| 2026-04-22 21:41 | 37.95512 | 6.86555 | 37070 ft | 502 kts | 190° |
| 2026-04-22 21:41 | 37.88582 | 6.85460 | 37068 ft | 502 kts | 190° |
| 2026-04-22 21:42 | 37.81649 | 6.84366 | 37069 ft | 502 kts | 190° |
| 2026-04-22 21:42 | 37.74717 | 6.83274 | 37071 ft | 502 kts | 190° |
| 2026-04-22 21:43 | 37.67782 | 6.82184 | 37070 ft | 502 kts | 190° |
| 2026-04-22 21:43 | 37.60843 | 6.81095 | 37071 ft | 502 kts | 190° |
| 2026-04-22 21:44 | 37.53907 | 6.80008 | 37068 ft | 502 kts | 190° |
| 2026-04-22 21:44 | 37.46967 | 6.78923 | 37068 ft | 503 kts | 189° |
| 2026-04-22 21:45 | 37.40026 | 6.77840 | 37065 ft | 503 kts | 189° |
| 2026-04-22 21:45 | 37.33083 | 6.76758 | 37068 ft | 503 kts | 189° |
| 2026-04-22 21:46 | 37.26181 | 6.75686 | 37065 ft | 503 kts | 189° |
| 2026-04-22 21:46 | 37.19236 | 6.74608 | 37068 ft | 503 kts | 189° |
| 2026-04-22 21:47 | 37.12288 | 6.73532 | 37070 ft | 503 kts | 189° |
| 2026-04-22 21:47 | 37.05345 | 6.72459 | 37066 ft | 503 kts | 189° |
| 2026-04-22 21:48 | 36.98396 | 6.71386 | 37069 ft | 503 kts | 189° |
| 2026-04-22 21:48 | 36.91451 | 6.70318 | 37069 ft | 503 kts | 189° |
| 2026-04-22 21:49 | 36.84504 | 6.69249 | 37068 ft | 503 kts | 189° |
| 2026-04-22 21:49 | 36.77554 | 6.68182 | 37071 ft | 503 kts | 189° |
| 2026-04-22 21:50 | 36.70604 | 6.67117 | 37069 ft | 503 kts | 189° |
| 2026-04-22 21:50 | 36.63646 | 6.66053 | 37075 ft | 504 kts | 189° |
| 2026-04-22 21:51 | 36.56686 | 6.64990 | 37089 ft | 504 kts | 189° |
| 2026-04-22 21:52 | 36.46241 | 6.63398 | 37116 ft | 504 kts | 189° |
| 2026-04-22 21:52 | 36.39273 | 6.62339 | 37124 ft | 504 kts | 189° |
| 2026-04-22 21:53 | 36.32344 | 6.61363 | 37129 ft | 505 kts | 185° |
| 2026-04-22 21:53 | 36.25319 | 6.61813 | 37129 ft | 508 kts | 171° |
| 2026-04-22 21:54 | 36.18397 | 6.63609 | 37124 ft | 508 kts | 169° |
| 2026-04-22 21:54 | 36.11469 | 6.65399 | 37112 ft | 509 kts | 169° |
| 2026-04-22 21:55 | 36.04539 | 6.67165 | 37100 ft | 508 kts | 169° |
| 2026-04-22 21:55 | 35.97611 | 6.68927 | 37092 ft | 508 kts | 169° |
| 2026-04-22 21:56 | 35.90684 | 6.70686 | 37087 ft | 508 kts | 169° |
| 2026-04-22 21:56 | 35.83759 | 6.72442 | 37084 ft | 508 kts | 169° |
| 2026-04-22 21:57 | 35.76837 | 6.74194 | 37085 ft | 508 kts | 169° |
| 2026-04-22 21:57 | 35.69923 | 6.75942 | 37076 ft | 507 kts | 169° |
| 2026-04-22 21:58 | 35.63015 | 6.77685 | 37076 ft | 507 kts | 169° |
| 2026-04-22 21:58 | 35.56111 | 6.79423 | 37073 ft | 506 kts | 169° |
| 2026-04-22 21:59 | 35.49225 | 6.81154 | 37085 ft | 505 kts | 169° |
| 2026-04-22 21:59 | 35.42351 | 6.82879 | 37083 ft | 504 kts | 169° |
| 2026-04-22 22:00 | 35.35476 | 6.84601 | 37079 ft | 504 kts | 170° |
| 2026-04-22 22:00 | 35.28612 | 6.86317 | 37043 ft | 503 kts | 170° |
| 2026-04-22 22:01 | 35.21759 | 6.88030 | 37076 ft | 502 kts | 170° |
| 2026-04-22 22:01 | 35.14912 | 6.89735 | 37067 ft | 502 kts | 170° |
| 2026-04-22 22:02 | 35.08122 | 6.91423 | 37055 ft | 501 kts | 170° |
| 2026-04-22 22:02 | 35.01293 | 6.93119 | 37032 ft | 500 kts | 170° |
| 2026-04-22 22:03 | 34.94481 | 6.94809 | 37020 ft | 499 kts | 171° |
| 2026-04-22 22:03 | 34.87680 | 6.96491 | 36998 ft | 498 kts | 171° |
| 2026-04-22 22:04 | 34.80899 | 6.98166 | 36987 ft | 497 kts | 171° |
| 2026-04-22 22:04 | 34.74129 | 6.99862 | 36969 ft | 496 kts | 170° |
| 2026-04-22 22:05 | 34.67380 | 7.01579 | 36962 ft | 495 kts | 170° |
| 2026-04-22 22:05 | 34.60633 | 7.03288 | 36948 ft | 495 kts | 170° |
| 2026-04-22 22:06 | 34.53898 | 7.04987 | 36938 ft | 494 kts | 171° |
| 2026-04-22 22:06 | 34.47165 | 7.06682 | 36929 ft | 494 kts | 171° |
| 2026-04-22 22:07 | 34.40435 | 7.08374 | 36927 ft | 494 kts | 171° |
| 2026-04-22 22:07 | 34.33709 | 7.10062 | 36919 ft | 493 kts | 171° |
| 2026-04-22 22:08 | 34.26988 | 7.11746 | 36921 ft | 493 kts | 171° |
| 2026-04-22 22:08 | 34.20271 | 7.13427 | 36912 ft | 493 kts | 171° |
| 2026-04-22 22:09 | 34.13558 | 7.15103 | 36920 ft | 492 kts | 171° |
| 2026-04-22 22:09 | 34.06857 | 7.16774 | 36910 ft | 492 kts | 171° |
| 2026-04-22 22:10 | 34.00163 | 7.18441 | 36915 ft | 491 kts | 171° |
| 2026-04-22 22:10 | 33.93477 | 7.20102 | 36908 ft | 490 kts | 171° |
| 2026-04-22 22:11 | 33.86846 | 7.21747 | 36911 ft | 489 kts | 171° |
| 2026-04-22 22:11 | 33.80178 | 7.23399 | 36906 ft | 489 kts | 171° |
| 2026-04-22 22:12 | 33.73522 | 7.25046 | 36914 ft | 488 kts | 171° |
| 2026-04-22 22:12 | 33.66870 | 7.26688 | 36907 ft | 488 kts | 171° |
| 2026-04-22 22:13 | 33.60227 | 7.28325 | 36911 ft | 487 kts | 171° |
| 2026-04-22 22:13 | 33.53591 | 7.29959 | 36911 ft | 487 kts | 171° |
| 2026-04-22 22:14 | 33.46960 | 7.31589 | 36912 ft | 486 kts | 172° |
| 2026-04-22 22:14 | 33.40331 | 7.33215 | 36913 ft | 486 kts | 172° |
| 2026-04-22 22:15 | 33.33711 | 7.34838 | 36913 ft | 486 kts | 172° |
| 2026-04-22 22:15 | 33.27086 | 7.36459 | 36909 ft | 486 kts | 172° |
| 2026-04-22 22:16 | 33.20465 | 7.38076 | 36910 ft | 486 kts | 172° |
| 2026-04-22 22:16 | 33.13840 | 7.39691 | 36910 ft | 486 kts | 172° |
| 2026-04-22 22:17 | 33.07220 | 7.41303 | 36911 ft | 486 kts | 172° |
| 2026-04-22 22:17 | 33.00601 | 7.42912 | 36909 ft | 485 kts | 172° |
| 2026-04-22 22:18 | 32.93984 | 7.44519 | 36910 ft | 485 kts | 172° |
| 2026-04-22 22:18 | 32.87369 | 7.46122 | 36905 ft | 485 kts | 172° |
| 2026-04-22 22:19 | 32.80761 | 7.47722 | 36905 ft | 485 kts | 172° |
| 2026-04-22 22:19 | 32.74191 | 7.49309 | 36905 ft | 485 kts | 172° |
| 2026-04-22 22:20 | 32.67583 | 7.50904 | 36907 ft | 485 kts | 172° |
| 2026-04-22 22:20 | 32.60973 | 7.52496 | 36904 ft | 485 kts | 172° |
| 2026-04-22 22:21 | 32.54365 | 7.54086 | 36911 ft | 485 kts | 172° |
| 2026-04-22 22:21 | 32.47754 | 7.55674 | 36906 ft | 485 kts | 172° |
| 2026-04-22 22:22 | 32.41142 | 7.57260 | 36917 ft | 485 kts | 172° |
| 2026-04-22 22:22 | 32.34532 | 7.58843 | 36913 ft | 485 kts | 172° |
| 2026-04-22 22:23 | 32.27923 | 7.60423 | 36908 ft | 485 kts | 172° |
| 2026-04-22 22:23 | 32.21308 | 7.62003 | 36900 ft | 485 kts | 172° |
| 2026-04-22 22:24 | 32.14695 | 7.63580 | 36909 ft | 485 kts | 172° |
| 2026-04-22 22:24 | 32.08079 | 7.65154 | 36902 ft | 485 kts | 172° |
| 2026-04-22 22:25 | 32.01467 | 7.66726 | 36907 ft | 485 kts | 172° |
| 2026-04-22 22:25 | 31.94849 | 7.68298 | 36903 ft | 485 kts | 172° |
| 2026-04-22 22:26 | 31.88279 | 7.69854 | 36899 ft | 485 kts | 172° |
| 2026-04-22 22:26 | 31.81662 | 7.71421 | 36898 ft | 485 kts | 172° |
| 2026-04-22 22:27 | 31.75043 | 7.72986 | 36899 ft | 485 kts | 172° |
| 2026-04-22 22:27 | 31.68428 | 7.74581 | 36904 ft | 485 kts | 172° |
| 2026-04-22 22:28 | 31.61817 | 7.76186 | 36898 ft | 485 kts | 172° |
| 2026-04-22 22:28 | 31.56319 | 7.77515 | 36895 ft | 485 kts | 172° |
| 2026-04-22 22:29 | 31.49702 | 7.79110 | 36898 ft | 485 kts | 172° |
| 2026-04-22 22:29 | 31.43082 | 7.80703 | 36893 ft | 485 kts | 172° |
| 2026-04-22 22:30 | 31.36467 | 7.82293 | 36896 ft | 486 kts | 172° |
| 2026-04-22 22:30 | 31.29848 | 7.83881 | 36893 ft | 486 kts | 172° |
| 2026-04-22 22:31 | 31.23229 | 7.85467 | 36895 ft | 485 kts | 172° |
| 2026-04-22 22:31 | 31.16609 | 7.87051 | 36891 ft | 485 kts | 172° |
| 2026-04-22 22:32 | 31.09993 | 7.88632 | 36891 ft | 485 kts | 172° |
| 2026-04-22 22:32 | 31.03377 | 7.90211 | 36890 ft | 485 kts | 172° |
| 2026-04-22 22:33 | 30.96765 | 7.91787 | 36891 ft | 485 kts | 172° |
| 2026-04-22 22:33 | 30.90155 | 7.93359 | 36888 ft | 485 kts | 172° |
| 2026-04-22 22:34 | 30.83548 | 7.94930 | 36883 ft | 485 kts | 172° |
| 2026-04-22 22:34 | 30.76941 | 7.96497 | 36884 ft | 484 kts | 172° |
| 2026-04-22 22:35 | 30.70337 | 7.98062 | 36942 ft | 485 kts | 172° |
| 2026-04-22 22:35 | 30.63708 | 7.99629 | 36883 ft | 486 kts | 172° |
| 2026-04-22 22:36 | 30.57119 | 8.01186 | 36882 ft | 486 kts | 172° |
| 2026-04-22 22:36 | 30.50489 | 8.02751 | 36881 ft | 486 kts | 172° |
| 2026-04-22 22:37 | 30.43861 | 8.04314 | 36879 ft | 486 kts | 172° |
| 2026-04-22 22:37 | 30.37224 | 8.05875 | 36876 ft | 486 kts | 172° |
| 2026-04-22 22:38 | 30.30593 | 8.07432 | 36875 ft | 486 kts | 172° |
| 2026-04-22 22:38 | 30.23966 | 8.08989 | 36877 ft | 486 kts | 172° |
| 2026-04-22 22:39 | 30.17343 | 8.10540 | 36875 ft | 486 kts | 172° |
| 2026-04-22 22:39 | 30.10720 | 8.12092 | 36873 ft | 485 kts | 173° |
| 2026-04-22 22:40 | 30.04105 | 8.13639 | 36877 ft | 485 kts | 172° |
| 2026-04-22 22:40 | 29.97491 | 8.15211 | 36873 ft | 485 kts | 172° |
| 2026-04-22 22:41 | 29.90876 | 8.16786 | 36873 ft | 486 kts | 172° |
| 2026-04-22 22:41 | 29.84255 | 8.18358 | 36872 ft | 486 kts | 172° |
| 2026-04-22 22:42 | 29.77635 | 8.19926 | 36869 ft | 486 kts | 173° |
| 2026-04-22 22:42 | 29.71016 | 8.21491 | 36867 ft | 486 kts | 173° |
| 2026-04-22 22:43 | 29.64397 | 8.23055 | 36867 ft | 486 kts | 173° |
| 2026-04-22 22:43 | 29.57776 | 8.24617 | 36870 ft | 486 kts | 173° |
| 2026-04-22 22:44 | 29.51202 | 8.26165 | 36867 ft | 485 kts | 173° |
| 2026-04-22 22:44 | 29.44587 | 8.27721 | 36870 ft | 485 kts | 173° |
| 2026-04-22 22:45 | 29.37975 | 8.29274 | 36864 ft | 485 kts | 173° |
| 2026-04-22 22:45 | 29.31367 | 8.30824 | 36866 ft | 485 kts | 173° |
| 2026-04-22 22:46 | 29.24761 | 8.32372 | 36872 ft | 485 kts | 173° |
| 2026-04-22 22:46 | 29.18151 | 8.33919 | 36865 ft | 485 kts | 173° |
| 2026-04-22 22:47 | 29.11547 | 8.35462 | 36867 ft | 484 kts | 173° |
| 2026-04-22 22:47 | 29.04938 | 8.37004 | 36870 ft | 484 kts | 173° |
| 2026-04-22 22:48 | 28.98335 | 8.38543 | 36870 ft | 484 kts | 173° |
| 2026-04-22 22:48 | 28.91729 | 8.40081 | 36871 ft | 485 kts | 173° |
| 2026-04-22 22:49 | 28.85116 | 8.41617 | 36871 ft | 485 kts | 173° |
| 2026-04-22 22:49 | 28.78499 | 8.43153 | 36874 ft | 485 kts | 173° |
| 2026-04-22 22:50 | 28.71879 | 8.44688 | 36871 ft | 486 kts | 173° |
| 2026-04-22 22:50 | 28.65256 | 8.46222 | 36871 ft | 486 kts | 173° |
| 2026-04-22 22:51 | 28.58666 | 8.47746 | 36870 ft | 487 kts | 173° |
| 2026-04-22 22:51 | 28.52029 | 8.49279 | 36867 ft | 487 kts | 173° |
| 2026-04-22 22:52 | 28.45390 | 8.50811 | 36866 ft | 487 kts | 173° |
| 2026-04-22 22:52 | 28.38742 | 8.52342 | 36863 ft | 488 kts | 173° |
| 2026-04-22 22:53 | 28.32090 | 8.53872 | 36861 ft | 488 kts | 173° |
| 2026-04-22 22:53 | 28.25435 | 8.55401 | 36859 ft | 488 kts | 173° |
| 2026-04-22 22:54 | 28.18782 | 8.56928 | 36853 ft | 488 kts | 173° |
| 2026-04-22 22:54 | 28.12123 | 8.58456 | 36853 ft | 488 kts | 173° |
| 2026-04-22 22:55 | 28.05468 | 8.59985 | 36852 ft | 488 kts | 173° |
| 2026-04-22 22:55 | 27.95496 | 8.62300 | 36851 ft | 487 kts | 173° |
| 2026-04-22 22:56 | 27.88855 | 8.63837 | 36854 ft | 487 kts | 173° |
| 2026-04-22 22:56 | 27.82221 | 8.65369 | 36852 ft | 486 kts | 173° |
| 2026-04-22 22:57 | 27.75588 | 8.66899 | 36863 ft | 486 kts | 173° |
| 2026-04-22 22:57 | 27.68962 | 8.68425 | 36861 ft | 486 kts | 173° |
| 2026-04-22 22:58 | 27.62347 | 8.69947 | 36856 ft | 485 kts | 174° |
| 2026-04-22 22:58 | 27.55732 | 8.71467 | 36857 ft | 485 kts | 174° |
| 2026-04-22 22:59 | 27.49120 | 8.72984 | 36854 ft | 485 kts | 174° |
| 2026-04-22 22:59 | 27.42559 | 8.74488 | 36852 ft | 484 kts | 174° |
| 2026-04-22 23:00 | 27.35955 | 8.75999 | 36855 ft | 484 kts | 174° |
| 2026-04-22 23:00 | 27.29354 | 8.77508 | 36848 ft | 484 kts | 174° |
| 2026-04-22 23:01 | 27.22754 | 8.79016 | 36861 ft | 484 kts | 174° |
| 2026-04-22 23:01 | 27.16155 | 8.80521 | 36860 ft | 484 kts | 174° |
| 2026-04-22 23:02 | 27.09553 | 8.82025 | 36858 ft | 484 kts | 174° |
| 2026-04-22 23:02 | 27.02952 | 8.83527 | 36862 ft | 484 kts | 174° |
| 2026-04-22 23:03 | 26.96347 | 8.85031 | 36865 ft | 484 kts | 174° |
| 2026-04-22 23:03 | 26.89743 | 8.86546 | 36884 ft | 485 kts | 174° |
| 2026-04-22 23:04 | 26.83133 | 8.88062 | 36892 ft | 485 kts | 174° |
| 2026-04-22 23:04 | 26.76518 | 8.89575 | 36893 ft | 485 kts | 174° |
| 2026-04-22 23:05 | 26.69901 | 8.91086 | 36886 ft | 485 kts | 174° |
| 2026-04-22 23:05 | 26.63284 | 8.92595 | 36883 ft | 485 kts | 174° |
| 2026-04-22 23:06 | 26.56667 | 8.94103 | 36872 ft | 486 kts | 174° |
| 2026-04-22 23:06 | 26.50046 | 8.95610 | 36869 ft | 485 kts | 174° |
| 2026-04-22 23:07 | 26.43425 | 8.97115 | 36878 ft | 485 kts | 174° |
| 2026-04-22 23:07 | 26.36807 | 8.98617 | 36880 ft | 485 kts | 174° |
| 2026-04-22 23:08 | 26.30187 | 9.00118 | 36886 ft | 485 kts | 175° |
| 2026-04-22 23:08 | 26.23568 | 9.01618 | 36899 ft | 486 kts | 175° |
| 2026-04-22 23:09 | 26.16940 | 9.03118 | 36904 ft | 486 kts | 175° |
| 2026-04-22 23:09 | 26.10312 | 9.04614 | 36910 ft | 487 kts | 175° |
| 2026-04-22 23:10 | 26.03678 | 9.06112 | 36921 ft | 486 kts | 175° |
| 2026-04-22 23:10 | 25.97036 | 9.07612 | 36930 ft | 487 kts | 175° |
| 2026-04-22 23:11 | 25.90386 | 9.09125 | 36932 ft | 488 kts | 175° |
| 2026-04-22 23:11 | 25.83730 | 9.10638 | 36946 ft | 488 kts | 175° |
| 2026-04-22 23:12 | 25.77071 | 9.12149 | 36946 ft | 489 kts | 175° |
| 2026-04-22 23:12 | 25.70398 | 9.13659 | 36948 ft | 490 kts | 175° |
| 2026-04-22 23:13 | 25.63714 | 9.15171 | 36958 ft | 491 kts | 175° |
| 2026-04-22 23:13 | 25.57022 | 9.16683 | 36967 ft | 491 kts | 175° |
| 2026-04-22 23:14 | 25.50318 | 9.18196 | 36977 ft | 492 kts | 175° |
| 2026-04-22 23:14 | 25.43599 | 9.19712 | 36981 ft | 493 kts | 175° |
| 2026-04-22 23:15 | 25.36910 | 9.21217 | 36994 ft | 494 kts | 175° |
| 2026-04-22 23:15 | 25.30164 | 9.22734 | 37009 ft | 495 kts | 175° |
| 2026-04-22 23:16 | 25.23403 | 9.24253 | 37019 ft | 496 kts | 175° |
| 2026-04-22 23:16 | 25.17728 | 9.25527 | 37023 ft | 497 kts | 175° |
| 2026-04-22 23:17 | 25.10945 | 9.27047 | 37040 ft | 498 kts | 175° |
| 2026-04-22 23:17 | 25.04144 | 9.28570 | 37039 ft | 499 kts | 175° |
| 2026-04-22 23:18 | 24.97331 | 9.30094 | 37048 ft | 500 kts | 175° |
| 2026-04-22 23:18 | 24.90554 | 9.31609 | 37050 ft | 501 kts | 175° |
| 2026-04-22 23:19 | 24.83716 | 9.33134 | 37058 ft | 502 kts | 175° |
| 2026-04-22 23:19 | 24.76869 | 9.34660 | 37052 ft | 502 kts | 175° |
| 2026-04-22 23:20 | 24.70012 | 9.36188 | 37058 ft | 503 kts | 175° |
| 2026-04-22 23:20 | 24.63158 | 9.37713 | 37056 ft | 503 kts | 175° |
| 2026-04-22 23:21 | 24.56293 | 9.39238 | 37073 ft | 504 kts | 175° |
| 2026-04-22 23:21 | 24.49421 | 9.40761 | 37094 ft | 504 kts | 176° |
| 2026-04-22 23:22 | 24.42540 | 9.42286 | 37109 ft | 505 kts | 176° |
| 2026-04-22 23:22 | 24.35648 | 9.43813 | 37129 ft | 506 kts | 176° |
| 2026-04-22 23:23 | 24.28802 | 9.45803 | 37129 ft | 517 kts | 166° |
| 2026-04-22 23:23 | 24.22327 | 9.49422 | 37128 ft | 527 kts | 155° |
| 2026-04-22 23:24 | 24.16013 | 9.53520 | 37110 ft | 528 kts | 155° |
| 2026-04-22 23:24 | 24.09664 | 9.57590 | 37078 ft | 529 kts | 156° |
| 2026-04-22 23:25 | 24.03304 | 9.61655 | 37053 ft | 530 kts | 156° |
| 2026-04-22 23:25 | 23.96933 | 9.65724 | 37034 ft | 531 kts | 156° |
| 2026-04-22 23:26 | 23.90553 | 9.69794 | 37033 ft | 531 kts | 156° |
| 2026-04-22 23:26 | 23.84159 | 9.73868 | 37013 ft | 532 kts | 156° |
| 2026-04-22 23:27 | 23.77754 | 9.77945 | 37020 ft | 533 kts | 156° |
| 2026-04-22 23:27 | 23.71382 | 9.81996 | 37023 ft | 534 kts | 156° |
| 2026-04-22 23:28 | 23.64948 | 9.86082 | 37008 ft | 536 kts | 156° |
| 2026-04-22 23:28 | 23.58497 | 9.90174 | 36992 ft | 537 kts | 156° |
| 2026-04-22 23:29 | 23.52038 | 9.94267 | 36988 ft | 538 kts | 156° |
| 2026-04-22 23:29 | 23.45567 | 9.98362 | 36984 ft | 539 kts | 156° |
| 2026-04-22 23:30 | 23.39079 | 10.02463 | 36974 ft | 540 kts | 156° |
| 2026-04-22 23:30 | 23.32579 | 10.06567 | 36972 ft | 541 kts | 156° |
| 2026-04-22 23:31 | 23.26062 | 10.10677 | 36966 ft | 542 kts | 156° |
| 2026-04-22 23:31 | 23.19535 | 10.14789 | 36964 ft | 543 kts | 157° |
| 2026-04-22 23:32 | 23.12998 | 10.18901 | 36960 ft | 543 kts | 157° |
| 2026-04-22 23:32 | 23.06451 | 10.23016 | 36959 ft | 544 kts | 157° |
| 2026-04-22 23:33 | 22.99896 | 10.27130 | 36955 ft | 544 kts | 157° |
| 2026-04-22 23:33 | 22.93381 | 10.31215 | 36952 ft | 545 kts | 157° |
| 2026-04-22 23:34 | 22.86814 | 10.35329 | 36952 ft | 545 kts | 157° |
| 2026-04-22 23:34 | 22.80238 | 10.39443 | 36947 ft | 546 kts | 157° |
| 2026-04-22 23:35 | 22.73655 | 10.43557 | 36946 ft | 547 kts | 157° |
| 2026-04-22 23:35 | 22.67063 | 10.47672 | 36939 ft | 547 kts | 157° |
| 2026-04-22 23:36 | 22.60479 | 10.51821 | 36931 ft | 549 kts | 156° |
| 2026-04-22 23:36 | 22.53987 | 10.56212 | 36927 ft | 551 kts | 155° |
| 2026-04-22 23:37 | 22.47492 | 10.60613 | 36930 ft | 551 kts | 155° |
| 2026-04-22 23:37 | 22.40977 | 10.64983 | 36925 ft | 551 kts | 155° |
| 2026-04-22 23:38 | 22.34456 | 10.69341 | 36926 ft | 551 kts | 155° |
| 2026-04-22 23:38 | 22.27929 | 10.73699 | 36922 ft | 552 kts | 155° |
| 2026-04-22 23:39 | 22.21397 | 10.78056 | 36926 ft | 552 kts | 155° |
| 2026-04-22 23:39 | 22.14862 | 10.82410 | 36917 ft | 552 kts | 156° |
| 2026-04-22 23:40 | 22.08316 | 10.86766 | 36920 ft | 553 kts | 156° |
| 2026-04-22 23:40 | 22.01770 | 10.91118 | 36915 ft | 553 kts | 156° |
| 2026-04-22 23:41 | 21.95220 | 10.95468 | 36914 ft | 553 kts | 156° |
| 2026-04-22 23:41 | 21.88672 | 10.99811 | 36911 ft | 553 kts | 156° |
| 2026-04-22 23:42 | 21.82123 | 11.04150 | 36912 ft | 553 kts | 156° |
| 2026-04-22 23:42 | 21.75571 | 11.08487 | 36907 ft | 553 kts | 156° |
| 2026-04-22 23:43 | 21.69018 | 11.12820 | 36907 ft | 553 kts | 156° |
| 2026-04-22 23:43 | 21.62508 | 11.17119 | 36907 ft | 553 kts | 156° |
| 2026-04-22 23:44 | 21.55949 | 11.21447 | 36910 ft | 553 kts | 156° |
| 2026-04-22 23:44 | 21.49390 | 11.25769 | 36907 ft | 553 kts | 156° |
| 2026-04-22 23:45 | 21.42829 | 11.30089 | 36899 ft | 554 kts | 156° |
| 2026-04-22 23:45 | 21.36260 | 11.34409 | 36893 ft | 554 kts | 156° |
| 2026-04-22 23:46 | 21.29687 | 11.38727 | 36906 ft | 554 kts | 156° |
| 2026-04-22 23:46 | 21.23110 | 11.43043 | 36907 ft | 554 kts | 156° |
| 2026-04-22 23:47 | 21.16526 | 11.47360 | 36901 ft | 555 kts | 156° |
| 2026-04-22 23:47 | 21.09933 | 11.51678 | 36899 ft | 555 kts | 156° |
| 2026-04-22 23:48 | 21.03336 | 11.55994 | 36902 ft | 556 kts | 157° |
| 2026-04-22 23:48 | 20.96729 | 11.60313 | 36901 ft | 557 kts | 157° |
| 2026-04-22 23:49 | 20.90161 | 11.64602 | 36902 ft | 557 kts | 157° |
| 2026-04-22 23:49 | 20.83534 | 11.68924 | 36902 ft | 558 kts | 157° |
| 2026-04-22 23:50 | 20.76897 | 11.73249 | 36897 ft | 559 kts | 157° |
| 2026-04-22 23:50 | 20.70252 | 11.77574 | 36902 ft | 560 kts | 157° |
| 2026-04-22 23:51 | 20.63595 | 11.81903 | 36903 ft | 561 kts | 157° |
| 2026-04-22 23:51 | 20.56932 | 11.86231 | 36903 ft | 561 kts | 157° |
| 2026-04-22 23:52 | 20.50260 | 11.90559 | 36900 ft | 561 kts | 158° |
| 2026-04-22 23:52 | 20.43587 | 11.94882 | 36894 ft | 562 kts | 158° |
| 2026-04-22 23:53 | 20.36907 | 11.99207 | 36892 ft | 562 kts | 158° |
| 2026-04-22 23:53 | 20.30228 | 12.03526 | 36891 ft | 561 kts | 158° |
| 2026-04-22 23:54 | 20.23549 | 12.07840 | 36890 ft | 562 kts | 158° |
| 2026-04-22 23:54 | 20.16864 | 12.12154 | 36890 ft | 562 kts | 158° |
| 2026-04-22 23:55 | 20.10179 | 12.16462 | 36893 ft | 562 kts | 158° |
| 2026-04-22 23:55 | 20.03488 | 12.20770 | 36893 ft | 562 kts | 158° |
| 2026-04-22 23:56 | 19.96797 | 12.25074 | 36888 ft | 562 kts | 158° |
| 2026-04-22 23:56 | 19.90100 | 12.29378 | 36891 ft | 563 kts | 158° |
| 2026-04-22 23:57 | 19.83398 | 12.33680 | 36889 ft | 563 kts | 158° |
| 2026-04-22 23:57 | 19.76691 | 12.37982 | 36889 ft | 563 kts | 158° |
| 2026-04-22 23:58 | 19.69981 | 12.42281 | 36885 ft | 564 kts | 158° |
| 2026-04-22 23:58 | 19.63309 | 12.46552 | 36887 ft | 564 kts | 158° |
| 2026-04-22 23:59 | 19.56590 | 12.50848 | 36888 ft | 564 kts | 158° |
| 2026-04-22 23:59 | 19.49868 | 12.55143 | 36888 ft | 564 kts | 158° |
| 2026-04-23 00:00 | 19.40863 | 12.60889 | 36887 ft | 565 kts | 158° |
| 2026-04-23 00:01 | 19.33039 | 12.65875 | 36890 ft | 565 kts | 158° |
| 2026-04-23 00:01 | 19.26303 | 12.70164 | 36895 ft | 565 kts | 158° |
| 2026-04-23 00:02 | 19.19569 | 12.74447 | 36891 ft | 565 kts | 158° |
| 2026-04-23 00:02 | 19.12835 | 12.78727 | 36894 ft | 564 kts | 158° |
| 2026-04-23 00:03 | 19.06108 | 12.82998 | 36902 ft | 564 kts | 158° |
| 2026-04-23 00:03 | 18.99353 | 12.87178 | 36891 ft | 556 kts | 163° |
| 2026-04-23 00:03 | 18.95843 | 12.88801 | 36893 ft | 544 kts | 171° |
| 2026-04-23 00:04 | 18.92273 | 12.90008 | 36892 ft | 537 kts | 174° |
| 2026-04-23 00:04 | 18.85113 | 12.92309 | 36892 ft | 538 kts | 174° |
| 2026-04-23 00:05 | 18.77968 | 12.94641 | 36891 ft | 538 kts | 174° |
| 2026-04-23 00:05 | 18.72031 | 12.96581 | 36887 ft | 537 kts | 174° |
| 2026-04-23 00:06 | 18.64897 | 12.98909 | 36889 ft | 536 kts | 174° |
| 2026-04-23 00:06 | 18.57774 | 13.01232 | 36892 ft | 536 kts | 173° |
| 2026-04-23 00:07 | 18.50654 | 13.03551 | 36885 ft | 535 kts | 174° |
| 2026-04-23 00:07 | 18.43541 | 13.05865 | 36887 ft | 535 kts | 174° |
| 2026-04-23 00:08 | 18.36426 | 13.08178 | 36890 ft | 535 kts | 173° |
| 2026-04-23 00:08 | 18.29314 | 13.10489 | 36890 ft | 535 kts | 173° |
| 2026-04-23 00:09 | 18.22205 | 13.12796 | 36898 ft | 534 kts | 173° |
| 2026-04-23 00:09 | 18.15108 | 13.15098 | 36892 ft | 533 kts | 173° |
| 2026-04-23 00:10 | 18.08016 | 13.17397 | 36884 ft | 533 kts | 173° |
| 2026-04-23 00:10 | 18.00937 | 13.19689 | 36887 ft | 532 kts | 173° |
| 2026-04-23 00:11 | 17.93862 | 13.21978 | 36882 ft | 532 kts | 173° |
| 2026-04-23 00:11 | 17.86800 | 13.24260 | 36881 ft | 531 kts | 173° |
| 2026-04-23 00:12 | 17.79792 | 13.26524 | 36882 ft | 530 kts | 173° |
| 2026-04-23 00:12 | 17.72703 | 13.28811 | 36878 ft | 529 kts | 173° |
| 2026-04-23 00:13 | 17.65723 | 13.31061 | 36879 ft | 528 kts | 173° |
| 2026-04-23 00:13 | 17.58707 | 13.33322 | 36879 ft | 527 kts | 173° |
| 2026-04-23 00:14 | 17.51702 | 13.35577 | 36875 ft | 526 kts | 172° |
| 2026-04-23 00:14 | 17.44711 | 13.37825 | 36878 ft | 525 kts | 172° |
| 2026-04-23 00:15 | 17.37738 | 13.40067 | 36873 ft | 524 kts | 172° |
| 2026-04-23 00:15 | 17.30774 | 13.42303 | 36876 ft | 523 kts | 172° |
| 2026-04-23 00:16 | 17.23826 | 13.44532 | 36873 ft | 522 kts | 172° |
| 2026-04-23 00:16 | 17.16892 | 13.46755 | 36875 ft | 521 kts | 172° |
| 2026-04-23 00:17 | 17.09966 | 13.48974 | 36873 ft | 520 kts | 172° |
| 2026-04-23 00:17 | 17.03053 | 13.51186 | 36869 ft | 519 kts | 172° |
| 2026-04-23 00:18 | 16.96144 | 13.53395 | 36869 ft | 519 kts | 172° |
| 2026-04-23 00:18 | 16.89243 | 13.55601 | 36868 ft | 518 kts | 171° |
| 2026-04-23 00:19 | 16.82352 | 13.57801 | 36869 ft | 518 kts | 171° |
| 2026-04-23 00:19 | 16.75464 | 13.59999 | 36864 ft | 518 kts | 171° |
| 2026-04-23 00:20 | 16.68577 | 13.62194 | 36863 ft | 517 kts | 171° |
| 2026-04-23 00:20 | 16.61696 | 13.64387 | 36866 ft | 517 kts | 171° |
| 2026-04-23 00:21 | 16.54812 | 13.66579 | 36860 ft | 517 kts | 171° |
| 2026-04-23 00:21 | 16.47935 | 13.68766 | 36860 ft | 517 kts | 171° |
| 2026-04-23 00:22 | 16.41055 | 13.70954 | 36859 ft | 517 kts | 171° |
| 2026-04-23 00:22 | 16.34176 | 13.73140 | 36853 ft | 517 kts | 171° |
| 2026-04-23 00:23 | 16.27298 | 13.75323 | 36853 ft | 517 kts | 171° |
| 2026-04-23 00:23 | 16.20420 | 13.77504 | 36853 ft | 517 kts | 171° |
| 2026-04-23 00:24 | 16.13583 | 13.79671 | 36848 ft | 517 kts | 170° |
| 2026-04-23 00:24 | 16.06702 | 13.81851 | 36848 ft | 517 kts | 170° |
| 2026-04-23 00:25 | 15.99820 | 13.84029 | 36837 ft | 517 kts | 170° |
| 2026-04-23 00:25 | 15.92933 | 13.86207 | 36836 ft | 517 kts | 170° |
| 2026-04-23 00:26 | 15.86050 | 13.88383 | 36850 ft | 517 kts | 170° |
| 2026-04-23 00:26 | 15.79169 | 13.90556 | 36842 ft | 517 kts | 170° |
| 2026-04-23 00:27 | 15.72286 | 13.92728 | 36842 ft | 517 kts | 170° |
| 2026-04-23 00:27 | 15.65399 | 13.94901 | 36836 ft | 517 kts | 170° |
| 2026-04-23 00:28 | 15.58516 | 13.97069 | 36839 ft | 517 kts | 170° |
| 2026-04-23 00:28 | 15.51633 | 13.99237 | 36830 ft | 517 kts | 169° |
| 2026-04-23 00:29 | 15.44752 | 14.01404 | 36833 ft | 517 kts | 169° |
| 2026-04-23 00:29 | 15.37867 | 14.03569 | 36828 ft | 517 kts | 169° |
| 2026-04-23 00:30 | 15.30986 | 14.05731 | 36823 ft | 517 kts | 169° |
| 2026-04-23 00:30 | 15.24099 | 14.07894 | 36834 ft | 517 kts | 169° |
| 2026-04-23 00:31 | 15.17213 | 14.10056 | 36830 ft | 517 kts | 169° |
| 2026-04-23 00:31 | 15.10327 | 14.12215 | 36823 ft | 517 kts | 169° |
| 2026-04-23 00:32 | 15.03441 | 14.14372 | 36829 ft | 517 kts | 169° |
| 2026-04-23 00:32 | 14.96555 | 14.16530 | 36826 ft | 517 kts | 169° |
| 2026-04-23 00:33 | 14.89674 | 14.18684 | 36820 ft | 517 kts | 169° |
| 2026-04-23 00:33 | 14.82791 | 14.20837 | 36815 ft | 516 kts | 169° |
| 2026-04-23 00:34 | 14.75921 | 14.22985 | 36814 ft | 516 kts | 169° |
| 2026-04-23 00:34 | 14.69099 | 14.25116 | 36816 ft | 515 kts | 169° |
| 2026-04-23 00:35 | 14.62243 | 14.27256 | 36821 ft | 514 kts | 169° |
| 2026-04-23 00:35 | 14.55394 | 14.29393 | 36811 ft | 514 kts | 169° |
| 2026-04-23 00:36 | 14.48552 | 14.31526 | 36811 ft | 513 kts | 169° |
| 2026-04-23 00:36 | 14.41723 | 14.33654 | 36809 ft | 513 kts | 169° |
| 2026-04-23 00:37 | 14.34899 | 14.35778 | 36806 ft | 512 kts | 169° |
| 2026-04-23 00:37 | 14.28079 | 14.37900 | 36807 ft | 511 kts | 169° |
| 2026-04-23 00:38 | 14.21273 | 14.40017 | 36808 ft | 511 kts | 169° |
| 2026-04-23 00:38 | 14.14478 | 14.42129 | 36805 ft | 510 kts | 169° |
| 2026-04-23 00:39 | 14.07688 | 14.44238 | 36805 ft | 509 kts | 169° |
| 2026-04-23 00:39 | 14.00908 | 14.46343 | 36806 ft | 509 kts | 169° |
| 2026-04-23 00:40 | 13.94131 | 14.48445 | 36806 ft | 508 kts | 169° |
| 2026-04-23 00:40 | 13.87366 | 14.50543 | 36804 ft | 508 kts | 168° |
| 2026-04-23 00:41 | 13.80608 | 14.52636 | 36804 ft | 507 kts | 168° |
| 2026-04-23 00:41 | 13.73857 | 14.54726 | 36800 ft | 506 kts | 168° |
| 2026-04-23 00:42 | 13.67111 | 14.56814 | 36803 ft | 506 kts | 168° |
| 2026-04-23 00:42 | 13.60370 | 14.58899 | 36800 ft | 506 kts | 168° |
| 2026-04-23 00:43 | 13.53677 | 14.60967 | 36800 ft | 506 kts | 168° |
| 2026-04-23 00:43 | 13.46941 | 14.63048 | 36801 ft | 505 kts | 168° |
| 2026-04-23 00:44 | 13.40205 | 14.65127 | 36797 ft | 505 kts | 168° |
| 2026-04-23 00:44 | 13.33469 | 14.67206 | 36799 ft | 505 kts | 168° |
| 2026-04-23 00:45 | 13.26735 | 14.69283 | 36795 ft | 505 kts | 168° |
| 2026-04-23 00:45 | 13.20008 | 14.71356 | 36793 ft | 505 kts | 168° |
| 2026-04-23 00:46 | 13.13287 | 14.73427 | 36793 ft | 504 kts | 168° |
| 2026-04-23 00:46 | 13.06580 | 14.75492 | 36799 ft | 503 kts | 168° |
| 2026-04-23 00:47 | 12.99879 | 14.77553 | 36795 ft | 502 kts | 168° |
| 2026-04-23 00:47 | 12.93193 | 14.79609 | 36795 ft | 501 kts | 168° |
| 2026-04-23 00:48 | 12.86515 | 14.81662 | 36793 ft | 501 kts | 168° |
| 2026-04-23 00:48 | 12.79845 | 14.83711 | 36790 ft | 500 kts | 168° |
| 2026-04-23 00:49 | 12.73174 | 14.85759 | 36789 ft | 500 kts | 168° |
| 2026-04-23 00:49 | 12.66506 | 14.87805 | 36784 ft | 500 kts | 168° |
| 2026-04-23 00:50 | 12.59840 | 14.89849 | 36794 ft | 500 kts | 168° |
| 2026-04-23 00:50 | 12.53175 | 14.91892 | 36789 ft | 500 kts | 168° |
| 2026-04-23 00:51 | 12.46511 | 14.93934 | 36772 ft | 500 kts | 168° |
| 2026-04-23 00:51 | 12.40974 | 14.95629 | 36785 ft | 500 kts | 168° |
| 2026-04-23 00:52 | 12.33192 | 14.98010 | 36785 ft | 499 kts | 167° |
| 2026-04-23 00:52 | 12.27667 | 14.99700 | 36774 ft | 499 kts | 167° |
| 2026-04-23 00:53 | 12.21017 | 15.01733 | 36771 ft | 498 kts | 167° |
| 2026-04-23 00:53 | 12.14354 | 15.03639 | 36773 ft | 495 kts | 173° |
| 2026-04-23 00:54 | 12.07573 | 15.04476 | 36773 ft | 490 kts | 179° |
| 2026-04-23 00:54 | 12.00781 | 15.05115 | 36776 ft | 491 kts | 179° |
| 2026-04-23 00:55 | 11.94026 | 15.05767 | 36777 ft | 491 kts | 179° |
| 2026-04-23 00:55 | 11.87225 | 15.06423 | 36776 ft | 491 kts | 179° |
| 2026-04-23 00:56 | 11.80421 | 15.07078 | 36770 ft | 491 kts | 179° |
| 2026-04-23 00:56 | 11.73611 | 15.07733 | 36772 ft | 491 kts | 179° |
| 2026-04-23 00:57 | 11.66802 | 15.08387 | 36772 ft | 492 kts | 178° |
| 2026-04-23 00:57 | 11.59989 | 15.09042 | 36772 ft | 492 kts | 178° |
| 2026-04-23 00:58 | 11.53179 | 15.09696 | 36767 ft | 492 kts | 178° |
| 2026-04-23 00:58 | 11.46367 | 15.10350 | 36766 ft | 492 kts | 178° |
| 2026-04-23 00:59 | 11.39557 | 15.11003 | 36761 ft | 492 kts | 178° |
| 2026-04-23 00:59 | 11.32746 | 15.11656 | 36759 ft | 491 kts | 178° |
| 2026-04-23 01:00 | 11.25938 | 15.12309 | 36767 ft | 491 kts | 178° |
| 2026-04-23 01:00 | 11.19128 | 15.12961 | 36758 ft | 491 kts | 178° |
| 2026-04-23 01:01 | 11.12320 | 15.13613 | 36768 ft | 491 kts | 178° |
| 2026-04-23 01:01 | 11.05511 | 15.14265 | 36771 ft | 492 kts | 178° |
| 2026-04-23 01:02 | 10.98694 | 15.14917 | 36759 ft | 492 kts | 178° |
| 2026-04-23 01:02 | 10.91873 | 15.15569 | 36749 ft | 492 kts | 178° |
| 2026-04-23 01:03 | 10.85053 | 15.16221 | 36749 ft | 493 kts | 178° |
| 2026-04-23 01:03 | 10.78227 | 15.16873 | 36754 ft | 493 kts | 178° |
| 2026-04-23 01:04 | 10.71398 | 15.17525 | 36755 ft | 493 kts | 178° |
| 2026-04-23 01:04 | 10.61150 | 15.18503 | 36760 ft | 493 kts | 178° |
| 2026-04-23 01:05 | 10.54321 | 15.19154 | 36755 ft | 493 kts | 178° |
| 2026-04-23 01:05 | 10.47530 | 15.19802 | 36762 ft | 493 kts | 177° |
| 2026-04-23 01:06 | 10.40692 | 15.20453 | 36761 ft | 494 kts | 177° |
| 2026-04-23 01:06 | 10.33850 | 15.21105 | 36764 ft | 494 kts | 177° |
| 2026-04-23 01:07 | 10.27007 | 15.21757 | 36764 ft | 494 kts | 177° |
| 2026-04-23 01:07 | 10.20161 | 15.22408 | 36770 ft | 494 kts | 177° |
| 2026-04-23 01:08 | 10.13310 | 15.23060 | 36768 ft | 495 kts | 177° |
| 2026-04-23 01:08 | 10.06455 | 15.23712 | 36767 ft | 495 kts | 177° |
| 2026-04-23 01:09 | 9.99604 | 15.24363 | 36769 ft | 495 kts | 177° |
| 2026-04-23 01:09 | 9.92745 | 15.25015 | 36775 ft | 495 kts | 177° |
| 2026-04-23 01:10 | 9.85891 | 15.25666 | 36775 ft | 495 kts | 176° |
| 2026-04-23 01:10 | 9.79035 | 15.26317 | 36779 ft | 495 kts | 176° |
| 2026-04-23 01:11 | 9.72185 | 15.26968 | 36784 ft | 495 kts | 176° |
| 2026-04-23 01:11 | 9.65331 | 15.27618 | 36784 ft | 494 kts | 176° |
| 2026-04-23 01:12 | 9.58481 | 15.28268 | 36788 ft | 494 kts | 176° |
| 2026-04-23 01:12 | 9.51634 | 15.28917 | 36786 ft | 494 kts | 176° |
| 2026-04-23 01:13 | 9.44791 | 15.29566 | 36791 ft | 494 kts | 176° |
| 2026-04-23 01:13 | 9.37949 | 15.30214 | 36795 ft | 494 kts | 176° |
| 2026-04-23 01:14 | 9.31158 | 15.30857 | 36794 ft | 493 kts | 176° |
| 2026-04-23 01:14 | 9.24321 | 15.31503 | 36795 ft | 493 kts | 176° |
| 2026-04-23 01:15 | 9.17491 | 15.32149 | 36798 ft | 493 kts | 176° |
| 2026-04-23 01:15 | 9.10660 | 15.32795 | 36799 ft | 493 kts | 176° |
| 2026-04-23 01:16 | 9.03831 | 15.33440 | 36801 ft | 493 kts | 176° |
| 2026-04-23 01:16 | 8.97005 | 15.34085 | 36803 ft | 493 kts | 176° |
| 2026-04-23 01:17 | 8.90184 | 15.34728 | 36799 ft | 492 kts | 176° |
| 2026-04-23 01:17 | 8.83359 | 15.35372 | 36805 ft | 492 kts | 176° |
| 2026-04-23 01:18 | 8.76540 | 15.36016 | 36807 ft | 492 kts | 176° |
| 2026-04-23 01:18 | 8.69719 | 15.36659 | 36805 ft | 492 kts | 176° |
| 2026-04-23 01:19 | 8.62896 | 15.37302 | 36809 ft | 492 kts | 176° |
| 2026-04-23 01:19 | 8.56073 | 15.37945 | 36804 ft | 492 kts | 176° |
| 2026-04-23 01:20 | 8.49253 | 15.38587 | 36804 ft | 492 kts | 176° |
| 2026-04-23 01:20 | 8.42430 | 15.39229 | 36809 ft | 492 kts | 176° |
| 2026-04-23 01:21 | 8.35606 | 15.39872 | 36812 ft | 493 kts | 176° |
| 2026-04-23 01:21 | 8.28779 | 15.40514 | 36811 ft | 493 kts | 176° |
| 2026-04-23 01:22 | 8.22001 | 15.41151 | 36822 ft | 493 kts | 176° |
| 2026-04-23 01:22 | 8.15132 | 15.41797 | 36817 ft | 493 kts | 176° |
| 2026-04-23 01:23 | 8.08347 | 15.42435 | 36816 ft | 493 kts | 175° |
| 2026-04-23 01:23 | 8.01523 | 15.43076 | 36817 ft | 493 kts | 175° |
| 2026-04-23 01:24 | 7.94694 | 15.43717 | 36818 ft | 493 kts | 175° |
| 2026-04-23 01:24 | 7.87866 | 15.44359 | 36823 ft | 493 kts | 175° |
| 2026-04-23 01:25 | 7.81042 | 15.45000 | 36827 ft | 493 kts | 175° |
| 2026-04-23 01:25 | 7.74215 | 15.45641 | 36825 ft | 493 kts | 175° |
| 2026-04-23 01:26 | 7.67390 | 15.46281 | 36826 ft | 493 kts | 175° |
| 2026-04-23 01:26 | 7.60560 | 15.46922 | 36830 ft | 493 kts | 175° |
| 2026-04-23 01:27 | 7.53730 | 15.47563 | 36842 ft | 493 kts | 175° |
| 2026-04-23 01:27 | 7.46898 | 15.48204 | 36847 ft | 493 kts | 175° |
| 2026-04-23 01:28 | 7.40071 | 15.48844 | 36858 ft | 493 kts | 175° |
| 2026-04-23 01:28 | 7.33237 | 15.49485 | 36861 ft | 493 kts | 175° |
| 2026-04-23 01:29 | 7.26405 | 15.50125 | 36871 ft | 493 kts | 175° |
| 2026-04-23 01:29 | 7.19568 | 15.50765 | 36876 ft | 493 kts | 175° |
| 2026-04-23 01:30 | 7.12734 | 15.51404 | 36884 ft | 493 kts | 175° |
| 2026-04-23 01:30 | 7.05897 | 15.52045 | 36889 ft | 493 kts | 175° |
| 2026-04-23 01:31 | 6.99066 | 15.52684 | 36887 ft | 493 kts | 175° |
| 2026-04-23 01:31 | 6.92227 | 15.53323 | 36896 ft | 494 kts | 175° |
| 2026-04-23 01:32 | 6.85384 | 15.53962 | 36903 ft | 494 kts | 175° |
| 2026-04-23 01:32 | 6.78541 | 15.54601 | 36902 ft | 494 kts | 175° |
| 2026-04-23 01:33 | 6.71692 | 15.55241 | 36907 ft | 494 kts | 175° |
| 2026-04-23 01:33 | 6.64841 | 15.55880 | 36910 ft | 495 kts | 175° |
| 2026-04-23 01:34 | 6.58036 | 15.56515 | 36911 ft | 495 kts | 175° |
| 2026-04-23 01:34 | 6.51179 | 15.57155 | 36906 ft | 495 kts | 175° |
| 2026-04-23 01:35 | 6.44317 | 15.57795 | 36908 ft | 495 kts | 175° |
| 2026-04-23 01:35 | 6.37451 | 15.58435 | 36906 ft | 496 kts | 175° |
| 2026-04-23 01:36 | 6.30582 | 15.59075 | 36898 ft | 496 kts | 175° |
| 2026-04-23 01:36 | 6.23712 | 15.59714 | 36900 ft | 496 kts | 175° |
| 2026-04-23 01:37 | 6.16838 | 15.60355 | 36897 ft | 496 kts | 175° |
| 2026-04-23 01:37 | 6.09968 | 15.60995 | 36893 ft | 496 kts | 175° |
| 2026-04-23 01:38 | 6.03091 | 15.61635 | 36885 ft | 496 kts | 175° |
| 2026-04-23 01:38 | 5.96218 | 15.62275 | 36887 ft | 496 kts | 175° |
| 2026-04-23 01:39 | 5.90499 | 15.62807 | 36878 ft | 497 kts | 175° |
| 2026-04-23 01:39 | 5.83618 | 15.63447 | 36875 ft | 497 kts | 175° |
| 2026-04-23 01:40 | 5.76733 | 15.64088 | 36874 ft | 497 kts | 175° |
| 2026-04-23 01:40 | 5.69842 | 15.64729 | 36876 ft | 497 kts | 175° |
| 2026-04-23 01:41 | 5.62948 | 15.65369 | 36873 ft | 498 kts | 175° |
| 2026-04-23 01:41 | 5.56051 | 15.66011 | 36872 ft | 498 kts | 175° |
| 2026-04-23 01:42 | 5.49151 | 15.66654 | 36867 ft | 498 kts | 175° |
| 2026-04-23 01:42 | 5.42247 | 15.67298 | 36866 ft | 499 kts | 175° |
| 2026-04-23 01:43 | 5.35381 | 15.67938 | 36865 ft | 499 kts | 175° |
| 2026-04-23 01:43 | 5.28422 | 15.68586 | 36863 ft | 499 kts | 175° |
| 2026-04-23 01:44 | 5.21547 | 15.69226 | 36864 ft | 499 kts | 175° |
| 2026-04-23 01:44 | 5.14631 | 15.69870 | 36865 ft | 499 kts | 175° |
| 2026-04-23 01:45 | 5.07720 | 15.70514 | 36863 ft | 498 kts | 174° |
| 2026-04-23 01:45 | 5.00817 | 15.71156 | 36865 ft | 498 kts | 174° |
| 2026-04-23 01:46 | 4.93921 | 15.71798 | 36865 ft | 497 kts | 174° |
| 2026-04-23 01:46 | 4.87035 | 15.72439 | 36865 ft | 497 kts | 174° |
| 2026-04-23 01:47 | 4.80156 | 15.73078 | 36869 ft | 496 kts | 174° |
| 2026-04-23 01:47 | 4.73287 | 15.73715 | 36863 ft | 495 kts | 174° |
| 2026-04-23 01:48 | 4.66426 | 15.74351 | 36868 ft | 495 kts | 174° |
| 2026-04-23 01:48 | 4.59568 | 15.74986 | 36865 ft | 495 kts | 174° |
| 2026-04-23 01:49 | 4.52721 | 15.75621 | 36865 ft | 494 kts | 174° |
| 2026-04-23 01:49 | 4.45874 | 15.76256 | 36866 ft | 494 kts | 174° |
| 2026-04-23 01:50 | 4.39037 | 15.76889 | 36865 ft | 493 kts | 174° |
| 2026-04-23 01:50 | 4.32199 | 15.77523 | 36869 ft | 493 kts | 174° |
| 2026-04-23 01:51 | 4.25364 | 15.78155 | 36865 ft | 493 kts | 174° |
| 2026-04-23 01:51 | 4.18512 | 15.78186 | 36866 ft | 493 kts | 182° |
| 2026-04-23 01:52 | 4.11702 | 15.77837 | 36860 ft | 493 kts | 182° |
| 2026-04-23 01:52 | 4.04846 | 15.77507 | 36862 ft | 493 kts | 182° |
| 2026-04-23 01:53 | 3.97990 | 15.77179 | 36865 ft | 493 kts | 182° |
| 2026-04-23 01:53 | 3.91131 | 15.76848 | 36867 ft | 493 kts | 182° |
| 2026-04-23 01:54 | 3.84269 | 15.76516 | 36863 ft | 494 kts | 182° |
| 2026-04-23 01:54 | 3.77402 | 15.76185 | 36867 ft | 494 kts | 182° |
| 2026-04-23 01:55 | 3.70536 | 15.75854 | 36869 ft | 494 kts | 182° |
| 2026-04-23 01:55 | 3.63663 | 15.75522 | 36866 ft | 495 kts | 182° |
| 2026-04-23 01:56 | 3.56788 | 15.75191 | 36870 ft | 495 kts | 182° |
| 2026-04-23 01:56 | 3.49919 | 15.74860 | 36869 ft | 494 kts | 182° |
| 2026-04-23 01:57 | 3.43046 | 15.74529 | 36869 ft | 494 kts | 182° |
| 2026-04-23 01:57 | 3.36185 | 15.74198 | 36874 ft | 493 kts | 182° |
| 2026-04-23 01:58 | 3.29330 | 15.73868 | 36875 ft | 493 kts | 182° |
| 2026-04-23 01:58 | 3.22481 | 15.73538 | 36873 ft | 492 kts | 182° |
| 2026-04-23 01:59 | 3.15641 | 15.73209 | 36871 ft | 492 kts | 182° |
| 2026-04-23 01:59 | 3.08805 | 15.72880 | 36872 ft | 492 kts | 181° |
| 2026-04-23 02:00 | 3.02018 | 15.72553 | 36870 ft | 491 kts | 181° |
| 2026-04-23 02:00 | 2.95194 | 15.72224 | 36873 ft | 491 kts | 181° |
| 2026-04-23 02:01 | 2.88369 | 15.71896 | 36873 ft | 491 kts | 181° |
| 2026-04-23 02:01 | 2.81550 | 15.71568 | 36869 ft | 491 kts | 181° |
| 2026-04-23 02:02 | 2.74722 | 15.71240 | 36868 ft | 491 kts | 181° |
| 2026-04-23 02:02 | 2.67896 | 15.70911 | 36868 ft | 491 kts | 181° |
| 2026-04-23 02:03 | 2.61066 | 15.70582 | 36870 ft | 492 kts | 181° |
| 2026-04-23 02:03 | 2.54231 | 15.70253 | 36871 ft | 492 kts | 181° |
| 2026-04-23 02:04 | 2.47389 | 15.69923 | 36868 ft | 492 kts | 181° |
| 2026-04-23 02:04 | 2.40539 | 15.69593 | 36868 ft | 493 kts | 181° |
| 2026-04-23 02:05 | 2.33691 | 15.69264 | 36868 ft | 493 kts | 181° |
| 2026-04-23 02:05 | 2.26838 | 15.68934 | 36865 ft | 493 kts | 181° |
| 2026-04-23 02:06 | 2.19977 | 15.68604 | 36865 ft | 494 kts | 181° |
| 2026-04-23 02:06 | 2.13104 | 15.68274 | 36862 ft | 495 kts | 182° |
| 2026-04-23 02:07 | 2.06228 | 15.67943 | 36861 ft | 495 kts | 182° |
| 2026-04-23 02:07 | 1.99351 | 15.67611 | 36861 ft | 495 kts | 182° |
| 2026-04-23 02:08 | 1.92465 | 15.67280 | 36857 ft | 495 kts | 182° |
| 2026-04-23 02:08 | 1.85576 | 15.66949 | 36860 ft | 496 kts | 182° |
| 2026-04-23 02:09 | 1.78681 | 15.66617 | 36858 ft | 496 kts | 182° |
| 2026-04-23 02:09 | 1.71784 | 15.66285 | 36858 ft | 496 kts | 182° |
| 2026-04-23 02:10 | 1.64928 | 15.65955 | 36860 ft | 497 kts | 182° |
| 2026-04-23 02:10 | 1.58027 | 15.65624 | 36858 ft | 497 kts | 182° |
| 2026-04-23 02:11 | 1.51123 | 15.65291 | 36859 ft | 497 kts | 182° |
| 2026-04-23 02:11 | 1.44215 | 15.64958 | 36859 ft | 497 kts | 182° |
| 2026-04-23 02:12 | 1.37298 | 15.64625 | 36859 ft | 498 kts | 182° |
| 2026-04-23 02:12 | 1.30376 | 15.64293 | 36859 ft | 498 kts | 182° |
| 2026-04-23 02:13 | 1.23455 | 15.63960 | 36860 ft | 498 kts | 182° |
| 2026-04-23 02:13 | 1.16527 | 15.63626 | 36861 ft | 499 kts | 182° |
| 2026-04-23 02:14 | 1.09595 | 15.63293 | 36858 ft | 499 kts | 182° |
| 2026-04-23 02:14 | 1.02658 | 15.62959 | 36858 ft | 499 kts | 182° |
| 2026-04-23 02:15 | 0.92256 | 15.62459 | 36859 ft | 499 kts | 182° |
| 2026-04-23 02:16 | 0.85311 | 15.62125 | 36859 ft | 499 kts | 182° |
| 2026-04-23 02:16 | 0.78366 | 15.61791 | 36858 ft | 500 kts | 182° |
| 2026-04-23 02:17 | 0.71422 | 15.61457 | 36862 ft | 500 kts | 182° |
| 2026-04-23 02:17 | 0.64468 | 15.61122 | 36859 ft | 500 kts | 182° |
| 2026-04-23 02:18 | 0.57516 | 15.60788 | 36860 ft | 500 kts | 182° |
| 2026-04-23 02:18 | 0.50557 | 15.60454 | 36861 ft | 501 kts | 182° |
| 2026-04-23 02:19 | 0.43601 | 15.60119 | 36860 ft | 501 kts | 182° |
| 2026-04-23 02:19 | 0.36635 | 15.59784 | 36858 ft | 501 kts | 182° |
| 2026-04-23 02:20 | 0.29664 | 15.59449 | 36859 ft | 501 kts | 182° |
| 2026-04-23 02:20 | 0.22696 | 15.59114 | 36859 ft | 501 kts | 182° |
| 2026-04-23 02:21 | 0.15725 | 15.58778 | 36861 ft | 502 kts | 182° |
| 2026-04-23 02:21 | 0.08796 | 15.58445 | 36862 ft | 502 kts | 182° |
| 2026-04-23 02:22 | 0.01818 | 15.58109 | 36860 ft | 502 kts | 182° |
| 2026-04-23 02:22 | -0.05162 | 15.57747 | 36862 ft | 502 kts | 184° |
| 2026-04-23 02:23 | -0.12125 | 15.57206 | 36861 ft | 502 kts | 184° |
| 2026-04-23 02:23 | -0.19096 | 15.56657 | 36861 ft | 502 kts | 184° |
| 2026-04-23 02:24 | -0.26064 | 15.56132 | 36860 ft | 502 kts | 184° |
| 2026-04-23 02:24 | -0.33028 | 15.55612 | 36862 ft | 502 kts | 184° |
| 2026-04-23 02:25 | -0.39992 | 15.55092 | 36863 ft | 502 kts | 184° |
| 2026-04-23 02:25 | -0.46954 | 15.54572 | 36863 ft | 502 kts | 184° |
| 2026-04-23 02:26 | -0.53914 | 15.54052 | 36863 ft | 501 kts | 184° |
| 2026-04-23 02:26 | -0.60872 | 15.53532 | 36861 ft | 501 kts | 184° |
| 2026-04-23 02:27 | -0.67823 | 15.53013 | 36863 ft | 501 kts | 184° |
| 2026-04-23 02:27 | -0.74774 | 15.52494 | 36860 ft | 501 kts | 184° |
| 2026-04-23 02:28 | -0.81722 | 15.51975 | 36860 ft | 501 kts | 184° |
| 2026-04-23 02:28 | -0.87495 | 15.51543 | 36862 ft | 501 kts | 184° |
| 2026-04-23 02:29 | -0.94441 | 15.51025 | 36861 ft | 501 kts | 184° |
| 2026-04-23 02:29 | -1.01390 | 15.50506 | 36862 ft | 501 kts | 184° |
| 2026-04-23 02:30 | -1.08334 | 15.49987 | 36861 ft | 501 kts | 184° |
| 2026-04-23 02:30 | -1.15282 | 15.49468 | 36864 ft | 501 kts | 184° |
| 2026-04-23 02:31 | -1.22230 | 15.48949 | 36860 ft | 501 kts | 184° |
| 2026-04-23 02:31 | -1.29175 | 15.48433 | 36865 ft | 501 kts | 184° |
| 2026-04-23 02:32 | -1.36126 | 15.47916 | 36866 ft | 501 kts | 184° |
| 2026-04-23 02:32 | -1.43071 | 15.47398 | 36865 ft | 500 kts | 184° |
| 2026-04-23 02:33 | -1.50016 | 15.46881 | 36867 ft | 500 kts | 184° |
| 2026-04-23 02:33 | -1.56961 | 15.46365 | 36864 ft | 500 kts | 184° |
| 2026-04-23 02:34 | -1.63899 | 15.45847 | 36869 ft | 500 kts | 184° |
| 2026-04-23 02:34 | -1.70845 | 15.45330 | 36869 ft | 500 kts | 184° |
| 2026-04-23 02:35 | -1.77745 | 15.44817 | 36867 ft | 501 kts | 184° |
| 2026-04-23 02:35 | -1.84697 | 15.44290 | 36867 ft | 501 kts | 184° |
| 2026-04-23 02:36 | -1.91695 | 15.43715 | 36869 ft | 502 kts | 184° |
| 2026-04-23 02:36 | -1.98612 | 15.43147 | 36867 ft | 502 kts | 184° |
| 2026-04-23 02:37 | -2.05583 | 15.42580 | 36870 ft | 503 kts | 184° |
| 2026-04-23 02:37 | -2.12561 | 15.42014 | 36876 ft | 503 kts | 184° |
| 2026-04-23 02:38 | -2.19547 | 15.41447 | 36876 ft | 504 kts | 184° |
| 2026-04-23 02:38 | -2.26536 | 15.40879 | 36879 ft | 504 kts | 184° |
| 2026-04-23 02:39 | -2.33520 | 15.40312 | 36880 ft | 504 kts | 184° |
| 2026-04-23 02:39 | -2.40507 | 15.39744 | 36878 ft | 504 kts | 184° |
| 2026-04-23 02:40 | -2.47495 | 15.39177 | 36879 ft | 504 kts | 184° |
| 2026-04-23 02:40 | -2.54485 | 15.38609 | 36878 ft | 504 kts | 184° |
| 2026-04-23 02:41 | -2.61476 | 15.38041 | 36877 ft | 504 kts | 184° |
| 2026-04-23 02:41 | -2.68460 | 15.37473 | 36884 ft | 503 kts | 184° |
| 2026-04-23 02:42 | -2.75442 | 15.36906 | 36881 ft | 503 kts | 184° |
| 2026-04-23 02:42 | -2.82422 | 15.36338 | 36876 ft | 503 kts | 184° |
| 2026-04-23 02:43 | -2.89401 | 15.35772 | 36879 ft | 503 kts | 184° |
| 2026-04-23 02:43 | -2.96378 | 15.35205 | 36876 ft | 503 kts | 184° |
| 2026-04-23 02:44 | -3.03352 | 15.34637 | 36879 ft | 503 kts | 184° |
| 2026-04-23 02:44 | -3.10329 | 15.34070 | 36880 ft | 503 kts | 184° |
| 2026-04-23 02:45 | -3.17252 | 15.33507 | 36879 ft | 503 kts | 184° |
| 2026-04-23 02:45 | -3.24228 | 15.32939 | 36881 ft | 503 kts | 184° |
| 2026-04-23 02:46 | -3.31200 | 15.32373 | 36885 ft | 503 kts | 184° |
| 2026-04-23 02:46 | -3.38172 | 15.31805 | 36886 ft | 502 kts | 184° |
| 2026-04-23 02:47 | -3.45135 | 15.31238 | 36889 ft | 502 kts | 184° |
| 2026-04-23 02:47 | -3.52092 | 15.30672 | 36895 ft | 501 kts | 184° |
| 2026-04-23 02:48 | -3.59039 | 15.30107 | 36894 ft | 501 kts | 184° |
| 2026-04-23 02:48 | -3.65984 | 15.29541 | 36895 ft | 500 kts | 184° |
| 2026-04-23 02:49 | -3.72917 | 15.28977 | 36897 ft | 500 kts | 184° |
| 2026-04-23 02:49 | -3.79847 | 15.28413 | 36895 ft | 499 kts | 184° |
| 2026-04-23 02:50 | -3.86777 | 15.27848 | 36897 ft | 499 kts | 184° |
| 2026-04-23 02:50 | -3.93701 | 15.27284 | 36892 ft | 499 kts | 184° |
| 2026-04-23 02:51 | -4.00580 | 15.26723 | 36888 ft | 499 kts | 184° |
| 2026-04-23 02:51 | -4.07505 | 15.26159 | 36886 ft | 499 kts | 184° |
| 2026-04-23 02:52 | -4.14429 | 15.25595 | 36884 ft | 499 kts | 184° |
| 2026-04-23 02:52 | -4.21335 | 15.25657 | 36885 ft | 497 kts | 168° |
| 2026-04-23 02:53 | -4.27734 | 15.28120 | 36884 ft | 494 kts | 147° |
| 2026-04-23 02:53 | -4.30463 | 15.30203 | 36883 ft | 493 kts | 136° |
| 2026-04-23 02:53 | -4.32780 | 15.32721 | 36884 ft | 492 kts | 129° |
| 2026-04-23 02:54 | -4.37138 | 15.38004 | 36881 ft | 492 kts | 134° |
| 2026-04-23 02:54 | -4.42735 | 15.41901 | 36884 ft | 494 kts | 155° |
| 2026-04-23 02:54 | -4.45990 | 15.42998 | 36885 ft | 495 kts | 166° |
| 2026-04-23 02:55 | -4.49403 | 15.43481 | 36888 ft | 496 kts | 175° |
| 2026-04-23 02:55 | -4.56307 | 15.43778 | 36892 ft | 497 kts | 176° |
| 2026-04-23 02:56 | -4.63197 | 15.44312 | 36898 ft | 496 kts | 173° |
| 2026-04-23 02:56 | -4.70070 | 15.45023 | 36906 ft | 497 kts | 173° |
| 2026-04-23 02:57 | -4.76944 | 15.45763 | 36913 ft | 497 kts | 173° |
| 2026-04-23 02:57 | -4.83820 | 15.46501 | 36909 ft | 497 kts | 172° |
| 2026-04-23 02:58 | -4.90658 | 15.47232 | 36910 ft | 497 kts | 172° |
| 2026-04-23 02:58 | -4.97589 | 15.47972 | 36910 ft | 498 kts | 172° |
| 2026-04-23 02:59 | -5.04427 | 15.48703 | 36911 ft | 498 kts | 172° |
| 2026-04-23 02:59 | -5.11316 | 15.49440 | 36914 ft | 498 kts | 172° |
| 2026-04-23 03:00 | -5.18204 | 15.50175 | 36915 ft | 498 kts | 172° |
| 2026-04-23 03:00 | -5.25092 | 15.50912 | 36908 ft | 498 kts | 172° |
| 2026-04-23 03:01 | -5.31977 | 15.51648 | 36915 ft | 498 kts | 172° |
| 2026-04-23 03:01 | -5.38868 | 15.52386 | 36919 ft | 498 kts | 172° |
| 2026-04-23 03:02 | -5.45754 | 15.53122 | 36913 ft | 498 kts | 172° |
| 2026-04-23 03:02 | -5.52639 | 15.53859 | 36917 ft | 497 kts | 172° |
| 2026-04-23 03:03 | -5.59524 | 15.54596 | 36914 ft | 498 kts | 172° |
| 2026-04-23 03:03 | -5.66407 | 15.55333 | 36914 ft | 498 kts | 172° |
| 2026-04-23 03:04 | -5.73294 | 15.56070 | 36915 ft | 498 kts | 172° |
| 2026-04-23 03:04 | -5.80177 | 15.56808 | 36913 ft | 498 kts | 172° |
| 2026-04-23 03:05 | -5.87070 | 15.57546 | 36916 ft | 498 kts | 172° |
| 2026-04-23 03:05 | -5.93914 | 15.58282 | 36910 ft | 498 kts | 172° |
| 2026-04-23 03:06 | -6.00805 | 15.59022 | 36910 ft | 498 kts | 172° |
| 2026-04-23 03:06 | -6.07706 | 15.59764 | 36909 ft | 499 kts | 172° |
| 2026-04-23 03:07 | -6.14608 | 15.60506 | 36909 ft | 499 kts | 172° |
| 2026-04-23 03:07 | -6.21511 | 15.61249 | 36909 ft | 499 kts | 172° |
| 2026-04-23 03:08 | -6.28420 | 15.61991 | 36909 ft | 499 kts | 172° |
| 2026-04-23 03:08 | -6.35332 | 15.62735 | 36909 ft | 499 kts | 172° |
| 2026-04-23 03:09 | -6.42243 | 15.63479 | 36911 ft | 500 kts | 172° |
| 2026-04-23 03:09 | -6.49155 | 15.64222 | 36908 ft | 499 kts | 172° |
| 2026-04-23 03:10 | -6.56064 | 15.64967 | 36912 ft | 500 kts | 172° |
| 2026-04-23 03:10 | -6.62978 | 15.65711 | 36912 ft | 500 kts | 172° |
| 2026-04-23 03:11 | -6.69893 | 15.66455 | 36906 ft | 500 kts | 172° |
| 2026-04-23 03:11 | -6.76811 | 15.67201 | 36912 ft | 500 kts | 172° |
| 2026-04-23 03:12 | -6.83732 | 15.67948 | 36913 ft | 500 kts | 172° |
| 2026-04-23 03:12 | -6.90655 | 15.68693 | 36910 ft | 501 kts | 172° |
| 2026-04-23 03:13 | -6.97583 | 15.69441 | 36918 ft | 501 kts | 172° |
| 2026-04-23 03:13 | -7.04510 | 15.70189 | 36918 ft | 501 kts | 172° |
| 2026-04-23 03:14 | -7.11442 | 15.70936 | 36920 ft | 501 kts | 172° |
| 2026-04-23 03:14 | -7.18374 | 15.71684 | 36923 ft | 501 kts | 172° |
| 2026-04-23 03:15 | -7.25315 | 15.72434 | 36925 ft | 501 kts | 172° |
| 2026-04-23 03:15 | -7.32251 | 15.73183 | 36925 ft | 502 kts | 172° |
| 2026-04-23 03:16 | -7.39193 | 15.73933 | 36928 ft | 502 kts | 172° |
| 2026-04-23 03:16 | -7.49560 | 15.75054 | 36933 ft | 501 kts | 172° |
| 2026-04-23 03:17 | -7.56488 | 15.75803 | 36929 ft | 501 kts | 172° |
| 2026-04-23 03:17 | -7.62294 | 15.76431 | 36933 ft | 500 kts | 172° |
| 2026-04-23 03:18 | -7.69218 | 15.77179 | 36936 ft | 500 kts | 172° |
| 2026-04-23 03:18 | -7.76088 | 15.77920 | 36940 ft | 500 kts | 172° |
| 2026-04-23 03:19 | -7.83045 | 15.78671 | 36940 ft | 499 kts | 172° |
| 2026-04-23 03:19 | -7.89910 | 15.79412 | 36940 ft | 499 kts | 172° |
| 2026-04-23 03:20 | -7.96815 | 15.80158 | 36941 ft | 499 kts | 172° |
| 2026-04-23 03:20 | -8.03717 | 15.80904 | 36947 ft | 499 kts | 172° |
| 2026-04-23 03:21 | -8.10617 | 15.81654 | 36946 ft | 499 kts | 172° |
| 2026-04-23 03:21 | -8.17514 | 15.82408 | 36951 ft | 499 kts | 172° |
| 2026-04-23 03:22 | -8.24414 | 15.83162 | 36953 ft | 499 kts | 172° |
| 2026-04-23 03:22 | -8.31313 | 15.83915 | 36949 ft | 499 kts | 173° |
| 2026-04-23 03:23 | -8.38217 | 15.84669 | 36953 ft | 499 kts | 173° |
| 2026-04-23 03:23 | -8.45125 | 15.85419 | 36958 ft | 499 kts | 173° |
| 2026-04-23 03:24 | -8.52036 | 15.86169 | 36953 ft | 500 kts | 173° |
| 2026-04-23 03:24 | -8.58949 | 15.86920 | 36961 ft | 500 kts | 173° |
| 2026-04-23 03:25 | -8.65863 | 15.87672 | 36959 ft | 500 kts | 173° |
| 2026-04-23 03:25 | -8.72779 | 15.88424 | 36957 ft | 500 kts | 173° |
| 2026-04-23 03:26 | -8.79689 | 15.89175 | 36952 ft | 500 kts | 173° |
| 2026-04-23 03:26 | -8.86599 | 15.89928 | 36955 ft | 499 kts | 173° |
| 2026-04-23 03:27 | -8.93509 | 15.90681 | 36949 ft | 499 kts | 173° |
| 2026-04-23 03:27 | -9.00420 | 15.91434 | 36949 ft | 499 kts | 173° |
| 2026-04-23 03:28 | -9.07328 | 15.92187 | 36948 ft | 499 kts | 173° |
| 2026-04-23 03:28 | -9.14238 | 15.92940 | 36946 ft | 499 kts | 173° |
| 2026-04-23 03:29 | -9.21148 | 15.93694 | 36948 ft | 500 kts | 173° |
| 2026-04-23 03:29 | -9.28061 | 15.94449 | 36944 ft | 500 kts | 173° |
| 2026-04-23 03:30 | -9.34975 | 15.95203 | 36942 ft | 500 kts | 173° |
| 2026-04-23 03:30 | -9.41887 | 15.95958 | 36945 ft | 500 kts | 173° |
| 2026-04-23 03:31 | -9.48801 | 15.96714 | 36947 ft | 500 kts | 173° |
| 2026-04-23 03:31 | -9.55714 | 15.97471 | 36948 ft | 500 kts | 173° |
| 2026-04-23 03:32 | -9.62626 | 15.98228 | 36948 ft | 500 kts | 173° |
| 2026-04-23 03:32 | -9.69540 | 15.98986 | 36951 ft | 500 kts | 173° |
| 2026-04-23 03:33 | -9.76454 | 15.99744 | 36950 ft | 500 kts | 173° |
| 2026-04-23 03:33 | -9.83363 | 16.00501 | 36953 ft | 499 kts | 173° |
| 2026-04-23 03:34 | -9.90220 | 16.01254 | 36953 ft | 499 kts | 174° |
| 2026-04-23 03:34 | -9.97119 | 16.02011 | 36955 ft | 499 kts | 174° |
| 2026-04-23 03:35 | -10.04018 | 16.02769 | 36954 ft | 499 kts | 174° |
| 2026-04-23 03:35 | -10.10917 | 16.03529 | 36959 ft | 498 kts | 173° |
| 2026-04-23 03:36 | -10.17800 | 16.04349 | 36960 ft | 498 kts | 173° |
| 2026-04-23 03:36 | -10.24681 | 16.05181 | 36966 ft | 498 kts | 173° |
| 2026-04-23 03:37 | -10.31565 | 16.06005 | 36970 ft | 498 kts | 173° |
| 2026-04-23 03:37 | -10.38447 | 16.06826 | 36971 ft | 498 kts | 174° |
| 2026-04-23 03:38 | -10.45326 | 16.07647 | 36973 ft | 498 kts | 174° |
| 2026-04-23 03:38 | -10.52209 | 16.08469 | 36976 ft | 498 kts | 174° |
| 2026-04-23 03:39 | -10.59098 | 16.09292 | 36975 ft | 498 kts | 174° |
| 2026-04-23 03:39 | -10.65980 | 16.10115 | 36982 ft | 498 kts | 174° |
| 2026-04-23 03:40 | -10.72863 | 16.10937 | 36987 ft | 498 kts | 174° |
| 2026-04-23 03:40 | -10.79742 | 16.11760 | 36991 ft | 498 kts | 174° |
| 2026-04-23 03:41 | -10.86620 | 16.12583 | 36992 ft | 498 kts | 174° |
| 2026-04-23 03:41 | -10.93494 | 16.13401 | 36996 ft | 497 kts | 174° |
| 2026-04-23 03:42 | -11.00376 | 16.14122 | 37000 ft | 497 kts | 175° |
| 2026-04-23 03:42 | -11.07254 | 16.14829 | 37003 ft | 497 kts | 175° |
| 2026-04-23 03:43 | -11.14137 | 16.15550 | 37006 ft | 497 kts | 175° |
| 2026-04-23 03:43 | -11.20966 | 16.16270 | 37009 ft | 497 kts | 175° |
| 2026-04-23 03:44 | -11.27839 | 16.16995 | 37009 ft | 497 kts | 175° |
| 2026-04-23 03:44 | -11.34711 | 16.17719 | 37014 ft | 496 kts | 175° |
| 2026-04-23 03:45 | -11.41582 | 16.18444 | 37010 ft | 496 kts | 175° |
| 2026-04-23 03:45 | -11.48451 | 16.19170 | 37014 ft | 496 kts | 175° |
| 2026-04-23 03:46 | -11.55323 | 16.19895 | 37012 ft | 496 kts | 175° |
| 2026-04-23 03:46 | -11.62192 | 16.20621 | 37016 ft | 496 kts | 175° |
| 2026-04-23 03:47 | -11.69058 | 16.21347 | 37014 ft | 496 kts | 175° |
| 2026-04-23 03:47 | -11.75922 | 16.22073 | 37017 ft | 496 kts | 175° |
| 2026-04-23 03:48 | -11.82790 | 16.22799 | 37015 ft | 496 kts | 175° |
| 2026-04-23 03:48 | -11.89660 | 16.23527 | 37019 ft | 496 kts | 175° |
| 2026-04-23 03:49 | -11.96529 | 16.24254 | 37019 ft | 496 kts | 175° |
| 2026-04-23 03:49 | -12.03401 | 16.24983 | 37018 ft | 496 kts | 175° |
| 2026-04-23 03:50 | -12.10268 | 16.25711 | 37019 ft | 497 kts | 175° |
| 2026-04-23 03:50 | -12.17143 | 16.26441 | 37020 ft | 497 kts | 175° |
| 2026-04-23 03:51 | -12.24019 | 16.27170 | 37014 ft | 497 kts | 175° |
| 2026-04-23 03:51 | -12.30893 | 16.27916 | 37017 ft | 497 kts | 175° |
| 2026-04-23 03:52 | -12.37762 | 16.28672 | 37019 ft | 497 kts | 175° |
| 2026-04-23 03:52 | -12.44637 | 16.29427 | 37019 ft | 497 kts | 175° |
| 2026-04-23 03:53 | -12.51471 | 16.30175 | 37026 ft | 497 kts | 175° |
| 2026-04-23 03:53 | -12.58347 | 16.30929 | 37020 ft | 497 kts | 175° |
| 2026-04-23 03:54 | -12.65227 | 16.31684 | 37025 ft | 497 kts | 175° |
| 2026-04-23 03:54 | -12.72103 | 16.32438 | 37020 ft | 497 kts | 175° |
| 2026-04-23 03:55 | -12.78978 | 16.33193 | 37023 ft | 497 kts | 175° |
| 2026-04-23 03:55 | -12.85850 | 16.33948 | 37020 ft | 497 kts | 175° |
| 2026-04-23 03:56 | -12.92722 | 16.34703 | 37021 ft | 497 kts | 175° |
| 2026-04-23 03:56 | -12.99592 | 16.35459 | 37020 ft | 497 kts | 175° |
| 2026-04-23 03:57 | -13.06465 | 16.36215 | 37015 ft | 497 kts | 175° |
| 2026-04-23 03:57 | -13.13334 | 16.36971 | 37017 ft | 497 kts | 175° |
| 2026-04-23 03:58 | -13.20208 | 16.37729 | 37015 ft | 497 kts | 175° |
| 2026-04-23 03:58 | -13.27085 | 16.38487 | 37016 ft | 497 kts | 175° |
| 2026-04-23 03:59 | -13.33961 | 16.39245 | 37015 ft | 497 kts | 175° |
| 2026-04-23 03:59 | -13.40838 | 16.40004 | 37017 ft | 497 kts | 176° |
| 2026-04-23 04:00 | -13.47712 | 16.40762 | 37016 ft | 497 kts | 176° |
| 2026-04-23 04:00 | -13.54594 | 16.41523 | 37014 ft | 497 kts | 176° |
| 2026-04-23 04:01 | -13.61429 | 16.42278 | 37018 ft | 498 kts | 176° |
| 2026-04-23 04:01 | -13.68319 | 16.43040 | 37016 ft | 498 kts | 176° |
| 2026-04-23 04:02 | -13.75212 | 16.43803 | 37019 ft | 498 kts | 176° |
| 2026-04-23 04:02 | -13.82102 | 16.44567 | 37020 ft | 498 kts | 176° |
| 2026-04-23 04:03 | -13.88991 | 16.45330 | 37017 ft | 498 kts | 176° |
| 2026-04-23 04:03 | -13.95881 | 16.46094 | 37016 ft | 498 kts | 176° |
| 2026-04-23 04:04 | -14.02769 | 16.46858 | 37016 ft | 498 kts | 176° |
| 2026-04-23 04:04 | -14.08498 | 16.47494 | 37016 ft | 498 kts | 176° |
| 2026-04-23 04:05 | -14.15386 | 16.48259 | 37015 ft | 498 kts | 176° |
| 2026-04-23 04:05 | -14.22275 | 16.49024 | 37016 ft | 498 kts | 176° |
| 2026-04-23 04:06 | -14.29169 | 16.49791 | 37017 ft | 498 kts | 176° |
| 2026-04-23 04:06 | -14.36066 | 16.50558 | 37019 ft | 498 kts | 177° |
| 2026-04-23 04:07 | -14.42958 | 16.51325 | 37017 ft | 498 kts | 177° |
| 2026-04-23 04:07 | -14.49852 | 16.52093 | 37015 ft | 498 kts | 177° |
| 2026-04-23 04:08 | -14.56747 | 16.52861 | 37013 ft | 498 kts | 177° |
| 2026-04-23 04:08 | -14.63643 | 16.53630 | 37016 ft | 499 kts | 177° |
| 2026-04-23 04:09 | -14.70542 | 16.54400 | 37013 ft | 499 kts | 177° |
| 2026-04-23 04:09 | -14.77449 | 16.55172 | 37018 ft | 499 kts | 177° |
| 2026-04-23 04:10 | -14.84346 | 16.55942 | 37009 ft | 499 kts | 177° |
| 2026-04-23 04:10 | -14.91247 | 16.56714 | 37011 ft | 499 kts | 178° |
| 2026-04-23 04:11 | -14.98152 | 16.57487 | 37011 ft | 499 kts | 178° |
| 2026-04-23 04:11 | -15.05055 | 16.58259 | 37009 ft | 499 kts | 178° |
| 2026-04-23 04:12 | -15.11956 | 16.59033 | 37008 ft | 499 kts | 178° |
| 2026-04-23 04:12 | -15.18859 | 16.59806 | 37011 ft | 499 kts | 178° |
| 2026-04-23 04:13 | -15.25761 | 16.60592 | 37007 ft | 499 kts | 178° |
| 2026-04-23 04:13 | -15.32608 | 16.61377 | 37007 ft | 498 kts | 178° |
| 2026-04-23 04:14 | -15.39499 | 16.62166 | 37005 ft | 498 kts | 178° |
| 2026-04-23 04:14 | -15.46389 | 16.62954 | 37004 ft | 498 kts | 178° |
| 2026-04-23 04:15 | -15.53278 | 16.63742 | 37010 ft | 498 kts | 178° |
| 2026-04-23 04:16 | -15.63607 | 16.64924 | 36998 ft | 498 kts | 178° |
| 2026-04-23 04:16 | -15.70500 | 16.65714 | 36997 ft | 498 kts | 178° |
| 2026-04-23 04:17 | -15.77391 | 16.66505 | 36996 ft | 498 kts | 178° |
| 2026-04-23 04:17 | -15.84284 | 16.67296 | 37003 ft | 498 kts | 178° |
| 2026-04-23 04:18 | -15.91178 | 16.68088 | 37003 ft | 499 kts | 178° |
| 2026-04-23 04:18 | -15.98078 | 16.68882 | 37000 ft | 499 kts | 179° |
| 2026-04-23 04:19 | -16.04975 | 16.69675 | 37000 ft | 499 kts | 179° |
| 2026-04-23 04:19 | -16.11874 | 16.70469 | 36992 ft | 499 kts | 179° |
| 2026-04-23 04:20 | -16.18769 | 16.71263 | 36993 ft | 499 kts | 179° |
| 2026-04-23 04:20 | -16.25670 | 16.72059 | 36994 ft | 499 kts | 179° |
| 2026-04-23 04:21 | -16.32570 | 16.72855 | 36998 ft | 499 kts | 179° |
| 2026-04-23 04:21 | -16.39469 | 16.73651 | 36997 ft | 498 kts | 179° |
| 2026-04-23 04:22 | -16.46314 | 16.74442 | 36994 ft | 498 kts | 179° |
| 2026-04-23 04:22 | -16.53204 | 16.75238 | 36995 ft | 498 kts | 179° |
| 2026-04-23 04:23 | -16.60090 | 16.76035 | 36996 ft | 498 kts | 179° |
| 2026-04-23 04:23 | -16.66966 | 16.76831 | 36996 ft | 497 kts | 179° |
| 2026-04-23 04:24 | -16.73846 | 16.77627 | 36996 ft | 497 kts | 179° |
| 2026-04-23 04:24 | -16.80730 | 16.78425 | 36998 ft | 498 kts | 179° |
| 2026-04-23 04:25 | -16.87612 | 16.79224 | 36996 ft | 498 kts | 179° |
| 2026-04-23 04:25 | -16.94497 | 16.80023 | 36997 ft | 498 kts | 179° |
| 2026-04-23 04:26 | -17.01384 | 16.80823 | 37004 ft | 498 kts | 179° |
| 2026-04-23 04:26 | -17.08274 | 16.81624 | 37002 ft | 498 kts | 179° |
| 2026-04-23 04:27 | -17.15170 | 16.82426 | 37008 ft | 499 kts | 180° |
| 2026-04-23 04:27 | -17.22070 | 16.83230 | 37008 ft | 499 kts | 180° |
| 2026-04-23 04:28 | -17.32429 | 16.84437 | 37007 ft | 500 kts | 180° |
| 2026-04-23 04:28 | -17.39340 | 16.85243 | 37007 ft | 500 kts | 180° |
| 2026-04-23 04:29 | -17.46259 | 16.86045 | 37007 ft | 500 kts | 180° |
| 2026-04-23 04:29 | -17.53182 | 16.86844 | 37005 ft | 501 kts | 180° |
| 2026-04-23 04:30 | -17.60112 | 16.87645 | 37006 ft | 501 kts | 180° |
| 2026-04-23 04:30 | -17.67050 | 16.88449 | 37011 ft | 502 kts | 180° |
| 2026-04-23 04:31 | -17.73979 | 16.89255 | 37014 ft | 500 kts | 180° |
| 2026-04-23 04:31 | -17.80884 | 16.90055 | 37020 ft | 499 kts | 180° |
| 2026-04-23 04:32 | -17.87791 | 16.90856 | 37012 ft | 499 kts | 180° |
| 2026-04-23 04:32 | -17.94689 | 16.91657 | 37012 ft | 499 kts | 180° |
| 2026-04-23 04:33 | -18.01587 | 16.92459 | 37015 ft | 499 kts | 181° |
| 2026-04-23 04:33 | -18.08455 | 16.93261 | 37016 ft | 488 kts | 181° |
| 2026-04-23 04:34 | -18.15075 | 16.94037 | 37018 ft | 481 kts | 181° |
| 2026-04-23 04:34 | -18.21750 | 16.94808 | 37020 ft | 482 kts | 181° |
| 2026-04-23 04:35 | -18.28419 | 16.95585 | 37026 ft | 482 kts | 181° |
| 2026-04-23 04:35 | -18.35086 | 16.96363 | 37026 ft | 482 kts | 181° |
| 2026-04-23 04:36 | -18.41754 | 16.97142 | 37029 ft | 482 kts | 181° |
| 2026-04-23 04:36 | -18.48415 | 16.97920 | 37029 ft | 482 kts | 181° |
| 2026-04-23 04:37 | -18.55077 | 16.98699 | 37029 ft | 482 kts | 181° |
| 2026-04-23 04:37 | -18.61741 | 16.99425 | 37029 ft | 478 kts | 185° |
| 2026-04-23 04:38 | -18.68353 | 16.99482 | 37034 ft | 474 kts | 188° |
| 2026-04-23 04:38 | -18.74996 | 17.00046 | 37033 ft | 484 kts | 180° |
| 2026-04-23 04:39 | -18.81667 | 17.01090 | 37034 ft | 485 kts | 179° |
| 2026-04-23 04:39 | -18.88335 | 17.02248 | 37038 ft | 486 kts | 178° |
| 2026-04-23 04:40 | -18.95001 | 17.03442 | 37037 ft | 486 kts | 178° |
| 2026-04-23 04:40 | -19.01664 | 17.04639 | 37038 ft | 486 kts | 178° |
| 2026-04-23 04:41 | -19.08319 | 17.05834 | 37041 ft | 485 kts | 179° |
| 2026-04-23 04:41 | -19.14982 | 17.07031 | 37045 ft | 486 kts | 179° |
| 2026-04-23 04:42 | -19.21644 | 17.08228 | 37045 ft | 485 kts | 179° |
| 2026-04-23 04:42 | -19.28306 | 17.09427 | 37047 ft | 486 kts | 179° |
| 2026-04-23 04:43 | -19.34968 | 17.10626 | 37050 ft | 486 kts | 179° |
| 2026-04-23 04:43 | -19.41626 | 17.11826 | 37051 ft | 485 kts | 179° |
| 2026-04-23 04:44 | -19.48289 | 17.13027 | 37054 ft | 486 kts | 179° |
| 2026-04-23 04:44 | -19.54909 | 17.14222 | 37057 ft | 486 kts | 179° |
| 2026-04-23 04:45 | -19.61572 | 17.15426 | 37061 ft | 486 kts | 179° |
| 2026-04-23 04:45 | -19.68240 | 17.16631 | 37063 ft | 486 kts | 179° |
| 2026-04-23 04:46 | -19.74911 | 17.17838 | 37063 ft | 486 kts | 179° |
| 2026-04-23 04:46 | -19.81578 | 17.19046 | 37067 ft | 486 kts | 179° |
| 2026-04-23 04:47 | -19.88252 | 17.20255 | 37072 ft | 487 kts | 179° |
| 2026-04-23 04:47 | -19.94924 | 17.21432 | 37070 ft | 486 kts | 180° |
| 2026-04-23 04:48 | -20.01599 | 17.22617 | 37073 ft | 487 kts | 180° |
| 2026-04-23 04:48 | -20.08268 | 17.23830 | 37073 ft | 486 kts | 180° |
| 2026-04-23 04:49 | -20.14991 | 17.25056 | 37072 ft | 494 kts | 180° |
| 2026-04-23 04:49 | -20.21799 | 17.26300 | 37076 ft | 497 kts | 180° |
| 2026-04-23 04:50 | -20.25160 | 17.26925 | 37071 ft | 483 kts | 180° |
| 2026-04-23 04:50 | -20.28455 | 17.27536 | 37074 ft | 483 kts | 180° |
| 2026-04-23 04:50 | -20.35091 | 17.28745 | 37072 ft | 476 kts | 180° |
| 2026-04-23 04:51 | -20.40583 | 17.29743 | 37074 ft | 487 kts | 180° |
| 2026-04-23 04:51 | -20.48426 | 17.31171 | 37074 ft | 496 kts | 180° |
| 2026-04-23 04:52 | -20.55260 | 17.32426 | 37066 ft | 499 kts | 180° |
| 2026-04-23 04:52 | -20.58617 | 17.33055 | 37070 ft | 481 kts | 180° |
| 2026-04-23 04:52 | -20.60825 | 17.33470 | 37076 ft | 475 kts | 180° |
| 2026-04-23 04:53 | -20.67404 | 17.34665 | 37000 ft | 481 kts | 180° |
| 2026-04-23 04:53 | -20.70700 | 17.35267 | 36499 ft | 481 kts | 180° |
| 2026-04-23 04:53 | -20.74005 | 17.35870 | 35743 ft | 483 kts | 180° |
| 2026-04-23 04:54 | -20.77327 | 17.36476 | 34925 ft | 486 kts | 180° |
| 2026-04-23 04:54 | -20.80660 | 17.37086 | 34027 ft | 487 kts | 179° |
| 2026-04-23 04:54 | -20.84023 | 17.37699 | 32746 ft | 494 kts | 178° |
| 2026-04-23 04:54 | -20.87455 | 17.38320 | 31256 ft | 508 kts | 177° |
| 2026-04-23 04:55 | -20.90932 | 17.38952 | 30105 ft | 516 kts | 176° |
| 2026-04-23 04:55 | -20.94455 | 17.39606 | 29418 ft | 509 kts | 176° |
| 2026-04-23 04:55 | -20.97953 | 17.40263 | 28857 ft | 498 kts | 176° |
| 2026-04-23 04:55 | -21.01347 | 17.40896 | 28173 ft | 491 kts | 176° |
| 2026-04-23 04:56 | -21.04686 | 17.41514 | 27518 ft | 484 kts | 176° |
| 2026-04-23 04:56 | -21.07939 | 17.42113 | 26877 ft | 477 kts | 176° |
| 2026-04-23 04:56 | -21.11231 | 17.42719 | 26230 ft | 470 kts | 175° |
| 2026-04-23 04:56 | -21.14390 | 17.43301 | 25603 ft | 464 kts | 175° |
| 2026-04-23 04:57 | -21.17548 | 17.43882 | 24979 ft | 457 kts | 175° |
| 2026-04-23 04:57 | -21.20660 | 17.44455 | 24360 ft | 451 kts | 175° |
| 2026-04-23 04:57 | -21.23735 | 17.45022 | 23736 ft | 445 kts | 175° |
| 2026-04-23 04:57 | -21.26767 | 17.45582 | 23014 ft | 439 kts | 175° |
| 2026-04-23 04:58 | -21.29757 | 17.46134 | 22259 ft | 433 kts | 174° |
| 2026-04-23 04:58 | -21.32709 | 17.46680 | 21515 ft | 428 kts | 174° |
| 2026-04-23 04:58 | -21.35625 | 17.47220 | 20809 ft | 422 kts | 174° |
| 2026-04-23 04:58 | -21.38491 | 17.47750 | 20333 ft | 416 kts | 174° |
| 2026-04-23 04:59 | -21.41348 | 17.48278 | 20078 ft | 417 kts | 174° |
| 2026-04-23 04:59 | -21.44205 | 17.48805 | 19842 ft | 416 kts | 174° |
| 2026-04-23 04:59 | -21.47052 | 17.49332 | 19613 ft | 414 kts | 174° |
| 2026-04-23 04:59 | -21.49883 | 17.49856 | 19388 ft | 412 kts | 174° |
| 2026-04-23 05:00 | -21.52700 | 17.50378 | 19166 ft | 410 kts | 174° |
| 2026-04-23 05:00 | -21.55507 | 17.50899 | 18935 ft | 408 kts | 174° |
| 2026-04-23 05:00 | -21.58303 | 17.51417 | 18711 ft | 407 kts | 174° |
| 2026-04-23 05:00 | -21.61089 | 17.51934 | 18491 ft | 405 kts | 174° |
| 2026-04-23 05:01 | -21.63861 | 17.52448 | 18251 ft | 404 kts | 174° |
| 2026-04-23 05:01 | -21.66625 | 17.52961 | 17996 ft | 403 kts | 174° |
| 2026-04-23 05:01 | -21.69378 | 17.53473 | 17740 ft | 401 kts | 174° |
| 2026-04-23 05:01 | -21.72120 | 17.53982 | 17485 ft | 399 kts | 173° |
| 2026-04-23 05:02 | -21.74857 | 17.54491 | 17242 ft | 398 kts | 173° |
| 2026-04-23 05:02 | -21.77581 | 17.54998 | 17000 ft | 397 kts | 173° |
| 2026-04-23 05:02 | -21.80302 | 17.55506 | 16747 ft | 396 kts | 173° |
| 2026-04-23 05:02 | -21.83012 | 17.56011 | 16501 ft | 395 kts | 173° |
| 2026-04-23 05:03 | -21.85710 | 17.56515 | 16261 ft | 393 kts | 173° |
| 2026-04-23 05:03 | -21.88397 | 17.57017 | 15797 ft | 391 kts | 173° |
| 2026-04-23 05:03 | -21.91061 | 17.57514 | 15257 ft | 385 kts | 173° |
| 2026-04-23 05:03 | -21.93667 | 17.58001 | 14682 ft | 376 kts | 173° |
| 2026-04-23 05:04 | -21.96206 | 17.58477 | 14196 ft | 365 kts | 173° |
| 2026-04-23 05:04 | -21.98684 | 17.58941 | 13645 ft | 357 kts | 173° |
| 2026-04-23 05:04 | -22.01111 | 17.59391 | 13166 ft | 362 kts | 173° |
| 2026-04-23 05:04 | -22.03706 | 17.59864 | 12645 ft | 390 kts | 172° |
| 2026-04-23 05:05 | -22.06416 | 17.60364 | 12084 ft | 397 kts | 171° |
| 2026-04-23 05:05 | -22.09128 | 17.60871 | 11532 ft | 392 kts | 171° |
| 2026-04-23 05:05 | -22.11783 | 17.61370 | 10982 ft | 381 kts | 171° |
| 2026-04-23 05:05 | -22.14346 | 17.61851 | 10542 ft | 365 kts | 170° |
| 2026-04-23 05:06 | -22.16778 | 17.62308 | 10340 ft | 344 kts | 170° |
| 2026-04-23 05:06 | -22.19063 | 17.62738 | 10150 ft | 323 kts | 170° |
| 2026-04-23 05:06 | -22.21238 | 17.63146 | 9687 ft | 314 kts | 169° |
| 2026-04-23 05:06 | -22.23353 | 17.63543 | 9404 ft | 306 kts | 169° |
| 2026-04-23 05:07 | -22.25446 | 17.63938 | 9293 ft | 310 kts | 169° |
| 2026-04-23 05:07 | -22.27584 | 17.64339 | 9199 ft | 303 kts | 169° |
| 2026-04-23 05:07 | -22.29567 | 17.64711 | 9077 ft | 283 kts | 169° |
| 2026-04-23 05:07 | -22.31435 | 17.65060 | 8927 ft | 262 kts | 169° |
| 2026-04-23 05:08 | -22.33167 | 17.65382 | 8806 ft | 242 kts | 169° |
| 2026-04-23 05:08 | -22.34771 | 17.65684 | 8680 ft | 226 kts | 169° |
| 2026-04-23 05:08 | -22.36279 | 17.65715 | 8522 ft | 209 kts | 198° |
| 2026-04-23 05:08 | -22.37402 | 17.64929 | 8448 ft | 183 kts | 230° |
| 2026-04-23 05:09 | -22.38319 | 17.63938 | 8375 ft | 188 kts | 224° |
| 2026-04-23 05:09 | -22.39334 | 17.63053 | 8305 ft | 189 kts | 221° |
| 2026-04-23 05:09 | -22.40393 | 17.62235 | 8134 ft | 181 kts | 219° |
| 2026-04-23 05:09 | -22.41230 | 17.61334 | 7971 ft | 168 kts | 244° |
| 2026-04-23 05:10 | -22.41818 | 17.60200 | 7801 ft | 171 kts | 248° |
| 2026-04-23 05:10 | -22.42368 | 17.59069 | 7602 ft | 169 kts | 249° |
| 2026-04-23 05:10 | -22.42905 | 17.57947 | 7398 ft | 167 kts | 249° |
| 2026-04-23 05:10 | -22.43437 | 17.56824 | 7187 ft | 167 kts | 249° |
| 2026-04-23 05:11 | -22.43970 | 17.55702 | 7003 ft | 170 kts | 249° |
| 2026-04-23 05:11 | -22.44520 | 17.54587 | 6759 ft | 167 kts | 246° |
| 2026-04-23 05:11 | -22.45081 | 17.53484 | 6530 ft | 165 kts | 248° |
| 2026-04-23 05:11 | -22.45575 | 17.52394 | 6250 ft | 157 kts | 247° |
| 2026-04-23 05:12 | -22.46042 | 17.51352 | 6006 ft | 154 kts | 245° |
| 2026-04-23 05:12 | -22.46518 | 17.50314 | 5827 ft | 153 kts | 244° |
| 2026-04-23 05:12 | -22.47003 | 17.49303 | 5624 ft | 153 kts | 244° |
| 2026-04-23 05:12 | -22.47459 | 17.48297 | 5536 ft | 143 kts | 245° |
| 2026-04-23 05:13 | -22.47808 | 17.47496 | 5558 ft | 95 kts | 244° |
| 2026-04-23 05:13 | -22.48000 | 17.47072 | 5570 ft | 51 kts | 244° |
| 2026-04-23 05:13 | -22.48148 | 17.46742 | 5569 ft | 47 kts | 244° |
| 2026-04-23 05:14 | -22.48333 | 17.46350 | 5569 ft | 18 kts | 243° |
| 2026-04-23 05:14 | -22.48406 | 17.46299 | 5573 ft | 7 kts | 163° |
| 2026-04-23 05:14 | -22.48408 | 17.46300 | 5573 ft | 0 kts | 162° |
| 2026-04-23 05:14 | -22.48410 | 17.46301 | 5573 ft | 3 kts | 162° |
| 2026-04-23 05:15 | -22.48439 | 17.46317 | 5571 ft | 6 kts | 140° |
| 2026-04-23 05:15 | -22.48455 | 17.46383 | 5573 ft | 9 kts | 81° |
| 2026-04-23 05:15 | -22.48421 | 17.46441 | 5572 ft | 8 kts | 62° |
| 2026-04-23 05:15 | -22.48441 | 17.46469 | 5570 ft | 4 kts | 151° |
| 2026-04-23 05:16 | -22.48469 | 17.46449 | 5574 ft | 9 kts | 232° |
| 2026-04-23 05:16 | -22.48470 | 17.46374 | 5571 ft | 11 kts | 269° |
| 2026-04-23 05:16 | -22.48479 | 17.46289 | 5572 ft | 12 kts | 256° |
| 2026-04-23 05:16 | -22.48514 | 17.46209 | 5574 ft | 11 kts | 242° |
| 2026-04-23 05:17 | -22.48550 | 17.46134 | 5576 ft | 11 kts | 243° |
| 2026-04-23 05:17 | -22.48593 | 17.46065 | 5577 ft | 11 kts | 216° |
| 2026-04-23 05:17 | -22.48631 | 17.46096 | 5575 ft | 7 kts | 95° |
| 2026-04-23 05:17 | -22.48638 | 17.46161 | 5573 ft | 11 kts | 106° |
| 2026-04-23 05:18 | -22.48643 | 17.46254 | 5573 ft | 14 kts | 78° |
| 2026-04-23 05:18 | -22.48614 | 17.46314 | 5571 ft | 8 kts | 61° |
| 2026-04-23 05:18 | -22.48574 | 17.46341 | 5572 ft | 4 kts | 356° |
| 2026-04-23 05:18 | -22.48561 | 17.46326 | 5571 ft | 0 kts | 317° |
| 2026-04-23 05:19 | -22.48556 | 17.46330 | 5572 ft | 0 kts | 296° |